<?xml version='1.0' encoding='UTF-8'?>
<gpx version="1.1" creator="https://www.komoot.de" xmlns="http://www.topografix.com/GPX/1/1" xmlns:xsi="http://www.w3.org/2001/XMLSchema-instance" xsi:schemaLocation="http://www.topografix.com/GPX/1/1 http://www.topografix.com/GPX/1/1/gpx.xsd">
  <metadata>
    <name>37_500SchupfOeschKaisten</name>
    <author>
      <link href="https://www.komoot.de">
        <text>komoot</text>
        <type>text/html</type>
      </link>
    </author>
  </metadata>
  <trk>
    <name>37_500SchupfOeschKaisten</name>
    <trkseg>
      <trkpt lat="47.541458" lon="7.870754">
        <ele>342.172781</ele>
        <time>2021-11-07T10:40:02.887Z</time>
      </trkpt>
      <trkpt lat="47.541410" lon="7.870791">
        <ele>342.172781</ele>
        <time>2021-11-07T10:40:04.187Z</time>
      </trkpt>
      <trkpt lat="47.540933" lon="7.871187">
        <ele>342.172781</ele>
        <time>2021-11-07T10:40:16.736Z</time>
      </trkpt>
      <trkpt lat="47.540894" lon="7.871220">
        <ele>342.172781</ele>
        <time>2021-11-07T10:40:17.872Z</time>
      </trkpt>
      <trkpt lat="47.540693" lon="7.871390">
        <ele>342.172781</ele>
        <time>2021-11-07T10:40:23.419Z</time>
      </trkpt>
      <trkpt lat="47.540463" lon="7.871584">
        <ele>342.644118</ele>
        <time>2021-11-07T10:40:29.750Z</time>
      </trkpt>
      <trkpt lat="47.540265" lon="7.871808">
        <ele>343.128101</ele>
        <time>2021-11-07T10:40:35.273Z</time>
      </trkpt>
      <trkpt lat="47.540216" lon="7.871851">
        <ele>343.238739</ele>
        <time>2021-11-07T10:40:36.759Z</time>
      </trkpt>
      <trkpt lat="47.540034" lon="7.871970">
        <ele>343.625206</ele>
        <time>2021-11-07T10:40:41.460Z</time>
      </trkpt>
      <trkpt lat="47.539930" lon="7.872041">
        <ele>343.847663</ele>
        <time>2021-11-07T10:40:44.047Z</time>
      </trkpt>
      <trkpt lat="47.539841" lon="7.872151">
        <ele>344.072834</ele>
        <time>2021-11-07T10:40:47.077Z</time>
      </trkpt>
      <trkpt lat="47.539678" lon="7.872430">
        <ele>344.556713</ele>
        <time>2021-11-07T10:40:52.599Z</time>
      </trkpt>
      <trkpt lat="47.539222" lon="7.873416">
        <ele>345.910522</ele>
        <time>2021-11-07T10:41:10.141Z</time>
      </trkpt>
      <trkpt lat="47.538278" lon="7.874319">
        <ele>347.073777</ele>
        <time>2021-11-07T10:41:29.795Z</time>
      </trkpt>
      <trkpt lat="47.537716" lon="7.874966">
        <ele>348.004121</ele>
        <time>2021-11-07T10:41:43.770Z</time>
      </trkpt>
      <trkpt lat="47.537261" lon="7.875237">
        <ele>348.860396</ele>
        <time>2021-11-07T10:41:53.287Z</time>
      </trkpt>
      <trkpt lat="47.537182" lon="7.875293">
        <ele>349.013316</ele>
        <time>2021-11-07T10:41:55.275Z</time>
      </trkpt>
      <trkpt lat="47.536921" lon="7.875537">
        <ele>349.552211</ele>
        <time>2021-11-07T10:42:01.242Z</time>
      </trkpt>
      <trkpt lat="47.536757" lon="7.875759">
        <ele>349.940129</ele>
        <time>2021-11-07T10:42:05.844Z</time>
      </trkpt>
      <trkpt lat="47.536632" lon="7.875912">
        <ele>350.223262</ele>
        <time>2021-11-07T10:42:09.012Z</time>
      </trkpt>
      <trkpt lat="47.536444" lon="7.876177">
        <ele>350.688023</ele>
        <time>2021-11-07T10:42:15.974Z</time>
      </trkpt>
      <trkpt lat="47.535851" lon="7.877319">
        <ele>355.170614</ele>
        <time>2021-11-07T10:42:47.288Z</time>
      </trkpt>
      <trkpt lat="47.535770" lon="7.877432">
        <ele>355.683410</ele>
        <time>2021-11-07T10:42:51.468Z</time>
      </trkpt>
      <trkpt lat="47.535635" lon="7.877484">
        <ele>356.326259</ele>
        <time>2021-11-07T10:42:57.335Z</time>
      </trkpt>
      <trkpt lat="47.535551" lon="7.877487">
        <ele>356.713491</ele>
        <time>2021-11-07T10:42:59.243Z</time>
      </trkpt>
      <trkpt lat="47.535322" lon="7.877590">
        <ele>357.816437</ele>
        <time>2021-11-07T10:43:09.295Z</time>
      </trkpt>
      <trkpt lat="47.535088" lon="7.877742">
        <ele>358.998285</ele>
        <time>2021-11-07T10:43:17.127Z</time>
      </trkpt>
      <trkpt lat="47.534855" lon="7.878090">
        <ele>360.707833</ele>
        <time>2021-11-07T10:43:29.110Z</time>
      </trkpt>
      <trkpt lat="47.534778" lon="7.878270">
        <ele>361.451114</ele>
        <time>2021-11-07T10:43:36.417Z</time>
      </trkpt>
      <trkpt lat="47.534825" lon="7.878414">
        <ele>362.009017</ele>
        <time>2021-11-07T10:43:39.043Z</time>
      </trkpt>
      <trkpt lat="47.534946" lon="7.878790">
        <ele>363.461912</ele>
        <time>2021-11-07T10:43:51.091Z</time>
      </trkpt>
      <trkpt lat="47.534908" lon="7.878975">
        <ele>364.136414</ele>
        <time>2021-11-07T10:43:55.149Z</time>
      </trkpt>
      <trkpt lat="47.534616" lon="7.879490">
        <ele>366.482234</ele>
        <time>2021-11-07T10:44:12.096Z</time>
      </trkpt>
      <trkpt lat="47.533892" lon="7.880353">
        <ele>369.742128</ele>
        <time>2021-11-07T10:44:39.835Z</time>
      </trkpt>
      <trkpt lat="47.533606" lon="7.880961">
        <ele>371.013015</ele>
        <time>2021-11-07T10:44:52.144Z</time>
      </trkpt>
      <trkpt lat="47.533374" lon="7.881639">
        <ele>372.316648</ele>
        <time>2021-11-07T10:45:03.189Z</time>
      </trkpt>
      <trkpt lat="47.533014" lon="7.882949">
        <ele>372.893248</ele>
        <time>2021-11-07T10:45:21.104Z</time>
      </trkpt>
      <trkpt lat="47.532859" lon="7.883508">
        <ele>372.932685</ele>
        <time>2021-11-07T10:45:26.982Z</time>
      </trkpt>
      <trkpt lat="47.532713" lon="7.884122">
        <ele>372.975168</ele>
        <time>2021-11-07T10:45:32.680Z</time>
      </trkpt>
      <trkpt lat="47.532699" lon="7.884224">
        <ele>372.981960</ele>
        <time>2021-11-07T10:45:33.634Z</time>
      </trkpt>
      <trkpt lat="47.532670" lon="7.884773">
        <ele>372.623678</ele>
        <time>2021-11-07T10:45:38.127Z</time>
      </trkpt>
      <trkpt lat="47.532658" lon="7.884989">
        <ele>372.404917</ele>
        <time>2021-11-07T10:45:39.739Z</time>
      </trkpt>
      <trkpt lat="47.532650" lon="7.885569">
        <ele>371.819360</ele>
        <time>2021-11-07T10:45:44.242Z</time>
      </trkpt>
      <trkpt lat="47.532505" lon="7.887120">
        <ele>370.231735</ele>
        <time>2021-11-07T10:45:56.193Z</time>
      </trkpt>
      <trkpt lat="47.532288" lon="7.887728">
        <ele>369.462472</ele>
        <time>2021-11-07T10:46:01.370Z</time>
      </trkpt>
      <trkpt lat="47.532011" lon="7.888896">
        <ele>368.077727</ele>
        <time>2021-11-07T10:46:10.599Z</time>
      </trkpt>
      <trkpt lat="47.531843" lon="7.889349">
        <ele>367.499604</ele>
        <time>2021-11-07T10:46:14.636Z</time>
      </trkpt>
      <trkpt lat="47.531560" lon="7.889776">
        <ele>367.276330</ele>
        <time>2021-11-07T10:46:19.576Z</time>
      </trkpt>
      <trkpt lat="47.531265" lon="7.889937">
        <ele>367.224917</ele>
        <time>2021-11-07T10:46:23.544Z</time>
      </trkpt>
      <trkpt lat="47.531076" lon="7.890029">
        <ele>367.192382</ele>
        <time>2021-11-07T10:46:26.386Z</time>
      </trkpt>
      <trkpt lat="47.530606" lon="7.890373">
        <ele>367.106648</ele>
        <time>2021-11-07T10:46:34.234Z</time>
      </trkpt>
      <trkpt lat="47.530322" lon="7.890690">
        <ele>367.048492</ele>
        <time>2021-11-07T10:46:40.228Z</time>
      </trkpt>
      <trkpt lat="47.529972" lon="7.891210">
        <ele>367.432166</ele>
        <time>2021-11-07T10:46:49.390Z</time>
      </trkpt>
      <trkpt lat="47.529714" lon="7.891609">
        <ele>367.816776</ele>
        <time>2021-11-07T10:46:56.723Z</time>
      </trkpt>
      <trkpt lat="47.529695" lon="7.891638">
        <ele>367.844907</ele>
        <time>2021-11-07T10:46:57.710Z</time>
      </trkpt>
      <trkpt lat="47.529235" lon="7.892158">
        <ele>368.441573</ele>
        <time>2021-11-07T10:47:08.643Z</time>
      </trkpt>
      <trkpt lat="47.528331" lon="7.892682">
        <ele>369.613365</ele>
        <time>2021-11-07T10:47:27.346Z</time>
      </trkpt>
      <trkpt lat="47.528003" lon="7.892732">
        <ele>370.057640</ele>
        <time>2021-11-07T10:47:33.052Z</time>
      </trkpt>
      <trkpt lat="47.527498" lon="7.892650">
        <ele>370.742144</ele>
        <time>2021-11-07T10:47:42.525Z</time>
      </trkpt>
      <trkpt lat="47.527011" lon="7.893061">
        <ele>371.693293</ele>
        <time>2021-11-07T10:47:55.717Z</time>
      </trkpt>
      <trkpt lat="47.526709" lon="7.893617">
        <ele>373.017699</ele>
        <time>2021-11-07T10:48:08.249Z</time>
      </trkpt>
      <trkpt lat="47.526504" lon="7.894030">
        <ele>373.969081</ele>
        <time>2021-11-07T10:48:18.430Z</time>
      </trkpt>
      <trkpt lat="47.526451" lon="7.893983">
        <ele>374.138885</ele>
        <time>2021-11-07T10:48:19.819Z</time>
      </trkpt>
      <trkpt lat="47.526401" lon="7.893964">
        <ele>374.280773</ele>
        <time>2021-11-07T10:48:20.637Z</time>
      </trkpt>
      <trkpt lat="47.526335" lon="7.893960">
        <ele>374.462341</ele>
        <time>2021-11-07T10:48:22.711Z</time>
      </trkpt>
      <trkpt lat="47.526257" lon="7.894278">
        <ele>375.090309</ele>
        <time>2021-11-07T10:48:28.922Z</time>
      </trkpt>
      <trkpt lat="47.525725" lon="7.895110">
        <ele>376.876638</ele>
        <time>2021-11-07T10:48:48.005Z</time>
      </trkpt>
      <trkpt lat="47.525603" lon="7.895265">
        <ele>377.162456</ele>
        <time>2021-11-07T10:48:53.621Z</time>
      </trkpt>
      <trkpt lat="47.525631" lon="7.895442">
        <ele>377.380729</ele>
        <time>2021-11-07T10:48:56.470Z</time>
      </trkpt>
      <trkpt lat="47.525631" lon="7.895583">
        <ele>377.550024</ele>
        <time>2021-11-07T10:48:57.662Z</time>
      </trkpt>
      <trkpt lat="47.525622" lon="7.895944">
        <ele>377.983762</ele>
        <time>2021-11-07T10:49:05.097Z</time>
      </trkpt>
      <trkpt lat="47.525590" lon="7.896117">
        <ele>378.199131</ele>
        <time>2021-11-07T10:49:06.650Z</time>
      </trkpt>
      <trkpt lat="47.525518" lon="7.896336">
        <ele>378.491588</ele>
        <time>2021-11-07T10:49:11.458Z</time>
      </trkpt>
      <trkpt lat="47.524834" lon="7.897636">
        <ele>379.446996</ele>
        <time>2021-11-07T10:49:28.381Z</time>
      </trkpt>
      <trkpt lat="47.524617" lon="7.898216">
        <ele>379.443760</ele>
        <time>2021-11-07T10:49:34.554Z</time>
      </trkpt>
      <trkpt lat="47.524360" lon="7.898951">
        <ele>379.439720</ele>
        <time>2021-11-07T10:49:42.095Z</time>
      </trkpt>
      <trkpt lat="47.524309" lon="7.899115">
        <ele>379.438839</ele>
        <time>2021-11-07T10:49:44.009Z</time>
      </trkpt>
      <trkpt lat="47.523896" lon="7.900001">
        <ele>380.298861</ele>
        <time>2021-11-07T10:49:55.932Z</time>
      </trkpt>
      <trkpt lat="47.523861" lon="7.900049">
        <ele>380.364017</ele>
        <time>2021-11-07T10:49:56.911Z</time>
      </trkpt>
      <trkpt lat="47.523890" lon="7.900131">
        <ele>380.449394</ele>
        <time>2021-11-07T10:49:57.866Z</time>
      </trkpt>
      <trkpt lat="47.523945" lon="7.900256">
        <ele>380.587001</ele>
        <time>2021-11-07T10:49:59.457Z</time>
      </trkpt>
      <trkpt lat="47.523989" lon="7.900340">
        <ele>380.685054</ele>
        <time>2021-11-07T10:50:00.507Z</time>
      </trkpt>
      <trkpt lat="47.523957" lon="7.900371">
        <ele>380.737284</ele>
        <time>2021-11-07T10:50:01.212Z</time>
      </trkpt>
      <trkpt lat="47.523878" lon="7.900445">
        <ele>380.864961</ele>
        <time>2021-11-07T10:50:03.329Z</time>
      </trkpt>
      <trkpt lat="47.523739" lon="7.900557">
        <ele>381.081101</ele>
        <time>2021-11-07T10:50:06.260Z</time>
      </trkpt>
      <trkpt lat="47.523648" lon="7.900606">
        <ele>381.213356</ele>
        <time>2021-11-07T10:50:08.439Z</time>
      </trkpt>
      <trkpt lat="47.523620" lon="7.900698">
        <ele>381.306432</ele>
        <time>2021-11-07T10:50:10.402Z</time>
      </trkpt>
      <trkpt lat="47.523567" lon="7.900820">
        <ele>381.440233</ele>
        <time>2021-11-07T10:50:12.499Z</time>
      </trkpt>
      <trkpt lat="47.523433" lon="7.901043">
        <ele>381.715559</ele>
        <time>2021-11-07T10:50:17.743Z</time>
      </trkpt>
      <trkpt lat="47.523340" lon="7.901197">
        <ele>381.928202</ele>
        <time>2021-11-07T10:50:21.786Z</time>
      </trkpt>
      <trkpt lat="47.523036" lon="7.901580">
        <ele>383.541225</ele>
        <time>2021-11-07T10:50:33.481Z</time>
      </trkpt>
      <trkpt lat="47.522688" lon="7.901843">
        <ele>385.120160</ele>
        <time>2021-11-07T10:50:45.799Z</time>
      </trkpt>
      <trkpt lat="47.522554" lon="7.901999">
        <ele>385.809007</ele>
        <time>2021-11-07T10:50:52.120Z</time>
      </trkpt>
      <trkpt lat="47.522260" lon="7.902356">
        <ele>387.345533</ele>
        <time>2021-11-07T10:51:04.493Z</time>
      </trkpt>
      <trkpt lat="47.522132" lon="7.902476">
        <ele>387.957772</ele>
        <time>2021-11-07T10:51:09.050Z</time>
      </trkpt>
      <trkpt lat="47.522065" lon="7.902526">
        <ele>388.260979</ele>
        <time>2021-11-07T10:51:11.245Z</time>
      </trkpt>
      <trkpt lat="47.522038" lon="7.902562">
        <ele>388.407808</ele>
        <time>2021-11-07T10:51:12.749Z</time>
      </trkpt>
      <trkpt lat="47.522038" lon="7.902562">
        <ele>388.407808</ele>
        <time>2021-11-07T10:51:12.867Z</time>
      </trkpt>
      <trkpt lat="47.522038" lon="7.902562">
        <ele>388.407808</ele>
        <time>2021-11-07T10:51:12.887Z</time>
      </trkpt>
      <trkpt lat="47.522013" lon="7.902637">
        <ele>388.636068</ele>
        <time>2021-11-07T10:51:15.020Z</time>
      </trkpt>
      <trkpt lat="47.521792" lon="7.903347">
        <ele>390.434028</ele>
        <time>2021-11-07T10:51:31.087Z</time>
      </trkpt>
      <trkpt lat="47.521297" lon="7.904312">
        <ele>393.050057</ele>
        <time>2021-11-07T10:51:55.260Z</time>
      </trkpt>
      <trkpt lat="47.520989" lon="7.905130">
        <ele>394.951424</ele>
        <time>2021-11-07T10:52:10.616Z</time>
      </trkpt>
      <trkpt lat="47.520903" lon="7.905382">
        <ele>395.097740</ele>
        <time>2021-11-07T10:52:14.592Z</time>
      </trkpt>
      <trkpt lat="47.520678" lon="7.906050">
        <ele>395.484571</ele>
        <time>2021-11-07T10:52:24.092Z</time>
      </trkpt>
      <trkpt lat="47.520635" lon="7.906284">
        <ele>395.610241</ele>
        <time>2021-11-07T10:52:26.776Z</time>
      </trkpt>
      <trkpt lat="47.520566" lon="7.906668">
        <ele>395.816158</ele>
        <time>2021-11-07T10:52:31.134Z</time>
      </trkpt>
      <trkpt lat="47.520528" lon="7.906930">
        <ele>395.955025</ele>
        <time>2021-11-07T10:52:34.450Z</time>
      </trkpt>
      <trkpt lat="47.520515" lon="7.907103">
        <ele>396.045229</ele>
        <time>2021-11-07T10:52:36.168Z</time>
      </trkpt>
      <trkpt lat="47.520506" lon="7.907236">
        <ele>396.114496</ele>
        <time>2021-11-07T10:52:37.262Z</time>
      </trkpt>
      <trkpt lat="47.520551" lon="7.907422">
        <ele>396.216882</ele>
        <time>2021-11-07T10:52:39.721Z</time>
      </trkpt>
      <trkpt lat="47.520733" lon="7.907655">
        <ele>396.309894</ele>
        <time>2021-11-07T10:52:42.841Z</time>
      </trkpt>
      <trkpt lat="47.520738" lon="7.907839">
        <ele>396.324329</ele>
        <time>2021-11-07T10:52:44.945Z</time>
      </trkpt>
      <trkpt lat="47.520493" lon="7.908683">
        <ele>396.396344</ele>
        <time>2021-11-07T10:52:53.089Z</time>
      </trkpt>
      <trkpt lat="47.519997" lon="7.910833">
        <ele>397.101068</ele>
        <time>2021-11-07T10:53:19.036Z</time>
      </trkpt>
      <trkpt lat="47.519891" lon="7.911129">
        <ele>397.319176</ele>
        <time>2021-11-07T10:53:23.626Z</time>
      </trkpt>
      <trkpt lat="47.519720" lon="7.911522">
        <ele>397.623518</ele>
        <time>2021-11-07T10:53:29.710Z</time>
      </trkpt>
      <trkpt lat="47.519421" lon="7.912098">
        <ele>398.096461</ele>
        <time>2021-11-07T10:53:39.276Z</time>
      </trkpt>
      <trkpt lat="47.517688" lon="7.914418">
        <ele>400.555208</ele>
        <time>2021-11-07T10:54:23.855Z</time>
      </trkpt>
      <trkpt lat="47.517281" lon="7.915238">
        <ele>401.218713</ele>
        <time>2021-11-07T10:54:36.869Z</time>
      </trkpt>
      <trkpt lat="47.517140" lon="7.915259">
        <ele>401.355524</ele>
        <time>2021-11-07T10:54:39.369Z</time>
      </trkpt>
      <trkpt lat="47.516806" lon="7.914896">
        <ele>401.755515</ele>
        <time>2021-11-07T10:54:46.944Z</time>
      </trkpt>
      <trkpt lat="47.516748" lon="7.914873">
        <ele>401.813482</ele>
        <time>2021-11-07T10:54:48.115Z</time>
      </trkpt>
      <trkpt lat="47.516662" lon="7.914835">
        <ele>401.900127</ele>
        <time>2021-11-07T10:54:49.907Z</time>
      </trkpt>
      <trkpt lat="47.516626" lon="7.914830">
        <ele>401.933442</ele>
        <time>2021-11-07T10:54:50.602Z</time>
      </trkpt>
      <trkpt lat="47.516590" lon="7.914840">
        <ele>401.966304</ele>
        <time>2021-11-07T10:54:51.197Z</time>
      </trkpt>
      <trkpt lat="47.516569" lon="7.914864">
        <ele>401.990105</ele>
        <time>2021-11-07T10:54:51.732Z</time>
      </trkpt>
      <trkpt lat="47.516544" lon="7.914936">
        <ele>402.039160</ele>
        <time>2021-11-07T10:54:52.579Z</time>
      </trkpt>
      <trkpt lat="47.516391" lon="7.915243">
        <ele>402.270348</ele>
        <time>2021-11-07T10:54:57.371Z</time>
      </trkpt>
      <trkpt lat="47.515014" lon="7.917030">
        <ele>404.084560</ele>
        <time>2021-11-07T10:55:31.148Z</time>
      </trkpt>
      <trkpt lat="47.514635" lon="7.917349">
        <ele>404.648979</ele>
        <time>2021-11-07T10:55:39.267Z</time>
      </trkpt>
      <trkpt lat="47.514561" lon="7.917409">
        <ele>404.758208</ele>
        <time>2021-11-07T10:55:41.158Z</time>
      </trkpt>
      <trkpt lat="47.514255" lon="7.917714">
        <ele>405.235780</ele>
        <time>2021-11-07T10:55:48.627Z</time>
      </trkpt>
      <trkpt lat="47.513378" lon="7.918393">
        <ele>406.818617</ele>
        <time>2021-11-07T10:56:10.354Z</time>
      </trkpt>
      <trkpt lat="47.513160" lon="7.918764">
        <ele>407.444431</ele>
        <time>2021-11-07T10:56:17.823Z</time>
      </trkpt>
      <trkpt lat="47.513058" lon="7.918896">
        <ele>407.699689</ele>
        <time>2021-11-07T10:56:21.011Z</time>
      </trkpt>
      <trkpt lat="47.512938" lon="7.919052">
        <ele>408.000584</ele>
        <time>2021-11-07T10:56:24.771Z</time>
      </trkpt>
      <trkpt lat="47.512664" lon="7.919306">
        <ele>408.609706</ele>
        <time>2021-11-07T10:56:32.103Z</time>
      </trkpt>
      <trkpt lat="47.512255" lon="7.919538">
        <ele>409.369022</ele>
        <time>2021-11-07T10:56:41.773Z</time>
      </trkpt>
      <trkpt lat="47.512085" lon="7.919732">
        <ele>409.633879</ele>
        <time>2021-11-07T10:56:46.397Z</time>
      </trkpt>
      <trkpt lat="47.511974" lon="7.919968">
        <ele>409.873568</ele>
        <time>2021-11-07T10:56:50.528Z</time>
      </trkpt>
      <trkpt lat="47.511964" lon="7.919989">
        <ele>409.894983</ele>
        <time>2021-11-07T10:56:50.962Z</time>
      </trkpt>
      <trkpt lat="47.511883" lon="7.920133">
        <ele>410.051171</ele>
        <time>2021-11-07T10:56:53.581Z</time>
      </trkpt>
      <trkpt lat="47.511632" lon="7.920105">
        <ele>410.361774</ele>
        <time>2021-11-07T10:57:00.266Z</time>
      </trkpt>
      <trkpt lat="47.511613" lon="7.920183">
        <ele>410.430883</ele>
        <time>2021-11-07T10:57:01.130Z</time>
      </trkpt>
      <trkpt lat="47.511186" lon="7.920984">
        <ele>411.281372</ele>
        <time>2021-11-07T10:57:13.859Z</time>
      </trkpt>
      <trkpt lat="47.511173" lon="7.921010">
        <ele>411.308334</ele>
        <time>2021-11-07T10:57:14.156Z</time>
      </trkpt>
      <trkpt lat="47.511067" lon="7.921207">
        <ele>411.508793</ele>
        <time>2021-11-07T10:57:17.164Z</time>
      </trkpt>
      <trkpt lat="47.511052" lon="7.921232">
        <ele>411.531861</ele>
        <time>2021-11-07T10:57:17.604Z</time>
      </trkpt>
      <trkpt lat="47.510872" lon="7.921477">
        <ele>411.781583</ele>
        <time>2021-11-07T10:57:21.918Z</time>
      </trkpt>
      <trkpt lat="47.510639" lon="7.921796">
        <ele>412.105704</ele>
        <time>2021-11-07T10:57:27.418Z</time>
      </trkpt>
      <trkpt lat="47.509688" lon="7.922616">
        <ele>413.229697</ele>
        <time>2021-11-07T10:57:47.942Z</time>
      </trkpt>
      <trkpt lat="47.509615" lon="7.922742">
        <ele>413.388160</ele>
        <time>2021-11-07T10:57:50.965Z</time>
      </trkpt>
      <trkpt lat="47.509583" lon="7.922962">
        <ele>413.698807</ele>
        <time>2021-11-07T10:57:53.749Z</time>
      </trkpt>
      <trkpt lat="47.509550" lon="7.923245">
        <ele>414.095235</ele>
        <time>2021-11-07T10:57:58.516Z</time>
      </trkpt>
      <trkpt lat="47.509550" lon="7.923245">
        <ele>414.095235</ele>
        <time>2021-11-07T10:57:58.608Z</time>
      </trkpt>
      <trkpt lat="47.509550" lon="7.923245">
        <ele>414.095235</ele>
        <time>2021-11-07T10:57:58.615Z</time>
      </trkpt>
      <trkpt lat="47.509595" lon="7.923295">
        <ele>414.210216</ele>
        <time>2021-11-07T10:57:59.718Z</time>
      </trkpt>
      <trkpt lat="47.509668" lon="7.923400">
        <ele>414.418214</ele>
        <time>2021-11-07T10:58:01.625Z</time>
      </trkpt>
      <trkpt lat="47.509817" lon="7.923703">
        <ele>414.935570</ele>
        <time>2021-11-07T10:58:07.815Z</time>
      </trkpt>
      <trkpt lat="47.509869" lon="7.923971">
        <ele>415.320472</ele>
        <time>2021-11-07T10:58:11.692Z</time>
      </trkpt>
      <trkpt lat="47.509886" lon="7.924134">
        <ele>415.548140</ele>
        <time>2021-11-07T10:58:15.045Z</time>
      </trkpt>
      <trkpt lat="47.509806" lon="7.924174">
        <ele>415.720701</ele>
        <time>2021-11-07T10:58:16.800Z</time>
      </trkpt>
      <trkpt lat="47.509676" lon="7.924247">
        <ele>416.004838</ele>
        <time>2021-11-07T10:58:19.682Z</time>
      </trkpt>
      <trkpt lat="47.509605" lon="7.924290">
        <ele>416.161605</ele>
        <time>2021-11-07T10:58:21.678Z</time>
      </trkpt>
      <trkpt lat="47.509572" lon="7.924311">
        <ele>416.235010</ele>
        <time>2021-11-07T10:58:22.935Z</time>
      </trkpt>
      <trkpt lat="47.509223" lon="7.924628">
        <ele>417.083390</ele>
        <time>2021-11-07T10:58:33.015Z</time>
      </trkpt>
      <trkpt lat="47.509032" lon="7.924863">
        <ele>417.652544</ele>
        <time>2021-11-07T10:58:38.909Z</time>
      </trkpt>
      <trkpt lat="47.509016" lon="7.924882">
        <ele>417.699550</ele>
        <time>2021-11-07T10:58:39.507Z</time>
      </trkpt>
      <trkpt lat="47.508667" lon="7.925295">
        <ele>418.723485</ele>
        <time>2021-11-07T10:58:50.752Z</time>
      </trkpt>
      <trkpt lat="47.508355" lon="7.925609">
        <ele>419.588081</ele>
        <time>2021-11-07T10:58:59.124Z</time>
      </trkpt>
      <trkpt lat="47.508106" lon="7.925799">
        <ele>420.230063</ele>
        <time>2021-11-07T10:59:05.439Z</time>
      </trkpt>
      <trkpt lat="47.508002" lon="7.925879">
        <ele>420.498658</ele>
        <time>2021-11-07T10:59:07.826Z</time>
      </trkpt>
      <trkpt lat="47.507856" lon="7.925990">
        <ele>420.874794</ele>
        <time>2021-11-07T10:59:11.683Z</time>
      </trkpt>
      <trkpt lat="47.506112" lon="7.927414">
        <ele>426.847110</ele>
        <time>2021-11-07T11:00:04.678Z</time>
      </trkpt>
      <trkpt lat="47.505881" lon="7.927601">
        <ele>427.755162</ele>
        <time>2021-11-07T11:00:13.374Z</time>
      </trkpt>
      <trkpt lat="47.505868" lon="7.927611">
        <ele>427.805691</ele>
        <time>2021-11-07T11:00:13.837Z</time>
      </trkpt>
      <trkpt lat="47.505814" lon="7.927657">
        <ele>428.020568</ele>
        <time>2021-11-07T11:00:16.394Z</time>
      </trkpt>
      <trkpt lat="47.505253" lon="7.928170">
        <ele>430.294820</ele>
        <time>2021-11-07T11:00:37.063Z</time>
      </trkpt>
      <trkpt lat="47.504799" lon="7.928777">
        <ele>432.404759</ele>
        <time>2021-11-07T11:00:52.463Z</time>
      </trkpt>
      <trkpt lat="47.504724" lon="7.928871">
        <ele>432.729760</ele>
        <time>2021-11-07T11:00:56.428Z</time>
      </trkpt>
      <trkpt lat="47.504650" lon="7.928941">
        <ele>432.848949</ele>
        <time>2021-11-07T11:00:58.961Z</time>
      </trkpt>
      <trkpt lat="47.504005" lon="7.929312">
        <ele>433.788119</ele>
        <time>2021-11-07T11:01:13.402Z</time>
      </trkpt>
      <trkpt lat="47.503815" lon="7.929426">
        <ele>434.066369</ele>
        <time>2021-11-07T11:01:16.362Z</time>
      </trkpt>
      <trkpt lat="47.503598" lon="7.929585">
        <ele>434.394990</ele>
        <time>2021-11-07T11:01:21.638Z</time>
      </trkpt>
      <trkpt lat="47.503528" lon="7.929650">
        <ele>434.507141</ele>
        <time>2021-11-07T11:01:22.710Z</time>
      </trkpt>
      <trkpt lat="47.503485" lon="7.929688">
        <ele>434.575110</ele>
        <time>2021-11-07T11:01:24.221Z</time>
      </trkpt>
      <trkpt lat="47.503014" lon="7.930220">
        <ele>435.291933</ele>
        <time>2021-11-07T11:01:34.133Z</time>
      </trkpt>
      <trkpt lat="47.502761" lon="7.930610">
        <ele>435.588612</ele>
        <time>2021-11-07T11:01:40.487Z</time>
      </trkpt>
      <trkpt lat="47.502613" lon="7.930856">
        <ele>435.769358</ele>
        <time>2021-11-07T11:01:44.285Z</time>
      </trkpt>
      <trkpt lat="47.502400" lon="7.931256">
        <ele>436.048823</ele>
        <time>2021-11-07T11:01:51.088Z</time>
      </trkpt>
      <trkpt lat="47.502023" lon="7.932158">
        <ele>436.632851</ele>
        <time>2021-11-07T11:02:04.075Z</time>
      </trkpt>
      <trkpt lat="47.501901" lon="7.932351">
        <ele>436.814518</ele>
        <time>2021-11-07T11:02:07.833Z</time>
      </trkpt>
      <trkpt lat="47.501794" lon="7.932466">
        <ele>436.949048</ele>
        <time>2021-11-07T11:02:09.713Z</time>
      </trkpt>
      <trkpt lat="47.501463" lon="7.932668">
        <ele>437.313302</ele>
        <time>2021-11-07T11:02:15.852Z</time>
      </trkpt>
      <trkpt lat="47.501075" lon="7.932885">
        <ele>437.735288</ele>
        <time>2021-11-07T11:02:23.677Z</time>
      </trkpt>
      <trkpt lat="47.500990" lon="7.932950">
        <ele>437.832625</ele>
        <time>2021-11-07T11:02:25.996Z</time>
      </trkpt>
      <trkpt lat="47.500843" lon="7.933102">
        <ele>438.015059</ele>
        <time>2021-11-07T11:02:29.003Z</time>
      </trkpt>
      <trkpt lat="47.500435" lon="7.933872">
        <ele>439.006901</ele>
        <time>2021-11-07T11:02:42.241Z</time>
      </trkpt>
      <trkpt lat="47.500386" lon="7.933937">
        <ele>439.164787</ele>
        <time>2021-11-07T11:02:43.458Z</time>
      </trkpt>
      <trkpt lat="47.500352" lon="7.933976">
        <ele>439.268001</ele>
        <time>2021-11-07T11:02:44.265Z</time>
      </trkpt>
      <trkpt lat="47.500275" lon="7.934029">
        <ele>439.471766</ele>
        <time>2021-11-07T11:02:46.513Z</time>
      </trkpt>
      <trkpt lat="47.500208" lon="7.934071">
        <ele>439.646360</ele>
        <time>2021-11-07T11:02:48.180Z</time>
      </trkpt>
      <trkpt lat="47.500193" lon="7.934023">
        <ele>439.732094</ele>
        <time>2021-11-07T11:02:48.824Z</time>
      </trkpt>
      <trkpt lat="47.500169" lon="7.933984">
        <ele>439.817614</ele>
        <time>2021-11-07T11:02:49.354Z</time>
      </trkpt>
      <trkpt lat="47.500138" lon="7.933956">
        <ele>439.904756</ele>
        <time>2021-11-07T11:02:50.155Z</time>
      </trkpt>
      <trkpt lat="47.500067" lon="7.933946">
        <ele>440.075893</ele>
        <time>2021-11-07T11:02:51.391Z</time>
      </trkpt>
      <trkpt lat="47.500034" lon="7.933965">
        <ele>440.160858</ele>
        <time>2021-11-07T11:02:52.356Z</time>
      </trkpt>
      <trkpt lat="47.500007" lon="7.933994">
        <ele>440.240906</ele>
        <time>2021-11-07T11:02:53.430Z</time>
      </trkpt>
      <trkpt lat="47.499971" lon="7.934127">
        <ele>440.473175</ele>
        <time>2021-11-07T11:02:55.838Z</time>
      </trkpt>
      <trkpt lat="47.499976" lon="7.934175">
        <ele>440.551908</ele>
        <time>2021-11-07T11:02:56.729Z</time>
      </trkpt>
      <trkpt lat="47.499991" lon="7.934221">
        <ele>440.634712</ele>
        <time>2021-11-07T11:02:57.243Z</time>
      </trkpt>
      <trkpt lat="47.500077" lon="7.934300">
        <ele>440.877583</ele>
        <time>2021-11-07T11:02:59.463Z</time>
      </trkpt>
      <trkpt lat="47.500111" lon="7.934299">
        <ele>440.959184</ele>
        <time>2021-11-07T11:03:00.101Z</time>
      </trkpt>
      <trkpt lat="47.500121" lon="7.934400">
        <ele>441.124665</ele>
        <time>2021-11-07T11:03:02.302Z</time>
      </trkpt>
      <trkpt lat="47.500647" lon="7.936766">
        <ele>446.692987</ele>
        <time>2021-11-07T11:03:50.384Z</time>
      </trkpt>
      <trkpt lat="47.500700" lon="7.936982">
        <ele>447.303692</ele>
        <time>2021-11-07T11:03:55.347Z</time>
      </trkpt>
      <trkpt lat="47.500786" lon="7.937295">
        <ele>448.201645</ele>
        <time>2021-11-07T11:04:02.416Z</time>
      </trkpt>
      <trkpt lat="47.500922" lon="7.937675">
        <ele>449.344437</ele>
        <time>2021-11-07T11:04:11.830Z</time>
      </trkpt>
      <trkpt lat="47.501302" lon="7.938421">
        <ele>452.460774</ele>
        <time>2021-11-07T11:04:33.704Z</time>
      </trkpt>
      <trkpt lat="47.503196" lon="7.941586">
        <ele>467.957605</ele>
        <time>2021-11-07T11:06:17.512Z</time>
      </trkpt>
      <trkpt lat="47.503525" lon="7.942511">
        <ele>472.352331</ele>
        <time>2021-11-07T11:06:46.396Z</time>
      </trkpt>
      <trkpt lat="47.503757" lon="7.943678">
        <ele>477.716015</ele>
        <time>2021-11-07T11:07:20.652Z</time>
      </trkpt>
      <trkpt lat="47.503877" lon="7.944221">
        <ele>480.235043</ele>
        <time>2021-11-07T11:07:36.717Z</time>
      </trkpt>
      <trkpt lat="47.504206" lon="7.945339">
        <ele>485.572005</ele>
        <time>2021-11-07T11:08:10.144Z</time>
      </trkpt>
      <trkpt lat="47.504339" lon="7.946127">
        <ele>489.122059</ele>
        <time>2021-11-07T11:08:31.746Z</time>
      </trkpt>
      <trkpt lat="47.504360" lon="7.947339">
        <ele>494.397601</ele>
        <time>2021-11-07T11:09:06.513Z</time>
      </trkpt>
      <trkpt lat="47.504516" lon="7.948210">
        <ele>498.283192</ele>
        <time>2021-11-07T11:09:30.894Z</time>
      </trkpt>
      <trkpt lat="47.504564" lon="7.948438">
        <ele>499.312982</ele>
        <time>2021-11-07T11:09:38.020Z</time>
      </trkpt>
      <trkpt lat="47.504637" lon="7.948756">
        <ele>500.761233</ele>
        <time>2021-11-07T11:09:46.651Z</time>
      </trkpt>
      <trkpt lat="47.504833" lon="7.949650">
        <ele>504.735439</ele>
        <time>2021-11-07T11:10:11.422Z</time>
      </trkpt>
      <trkpt lat="47.505078" lon="7.950674">
        <ele>508.868027</ele>
        <time>2021-11-07T11:10:40.898Z</time>
      </trkpt>
      <trkpt lat="47.505298" lon="7.951312">
        <ele>511.593002</ele>
        <time>2021-11-07T11:10:58.168Z</time>
      </trkpt>
      <trkpt lat="47.505561" lon="7.951903">
        <ele>514.284427</ele>
        <time>2021-11-07T11:11:14.548Z</time>
      </trkpt>
      <trkpt lat="47.505724" lon="7.952248">
        <ele>515.761528</ele>
        <time>2021-11-07T11:11:24.444Z</time>
      </trkpt>
      <trkpt lat="47.506242" lon="7.953373">
        <ele>520.538238</ele>
        <time>2021-11-07T11:11:58.907Z</time>
      </trkpt>
      <trkpt lat="47.506403" lon="7.953752">
        <ele>522.109006</ele>
        <time>2021-11-07T11:12:10.336Z</time>
      </trkpt>
      <trkpt lat="47.506539" lon="7.954325">
        <ele>523.621647</ele>
        <time>2021-11-07T11:12:24.207Z</time>
      </trkpt>
      <trkpt lat="47.506555" lon="7.954505">
        <ele>523.626943</ele>
        <time>2021-11-07T11:12:28.574Z</time>
      </trkpt>
      <trkpt lat="47.506559" lon="7.954699">
        <ele>523.632604</ele>
        <time>2021-11-07T11:12:32.457Z</time>
      </trkpt>
      <trkpt lat="47.506560" lon="7.954845">
        <ele>523.636863</ele>
        <time>2021-11-07T11:12:34.720Z</time>
      </trkpt>
      <trkpt lat="47.506539" lon="7.955130">
        <ele>523.645225</ele>
        <time>2021-11-07T11:12:40.459Z</time>
      </trkpt>
      <trkpt lat="47.506484" lon="7.955438">
        <ele>523.654517</ele>
        <time>2021-11-07T11:12:42.858Z</time>
      </trkpt>
      <trkpt lat="47.506190" lon="7.956344">
        <ele>523.683835</ele>
        <time>2021-11-07T11:12:50.564Z</time>
      </trkpt>
      <trkpt lat="47.506053" lon="7.957072">
        <ele>521.888443</ele>
        <time>2021-11-07T11:12:55.727Z</time>
      </trkpt>
      <trkpt lat="47.506050" lon="7.957299">
        <ele>520.870584</ele>
        <time>2021-11-07T11:12:57.171Z</time>
      </trkpt>
      <trkpt lat="47.506050" lon="7.957397">
        <ele>520.431241</ele>
        <time>2021-11-07T11:12:57.721Z</time>
      </trkpt>
      <trkpt lat="47.506128" lon="7.958087">
        <ele>517.294890</ele>
        <time>2021-11-07T11:13:01.996Z</time>
      </trkpt>
      <trkpt lat="47.506363" lon="7.959196">
        <ele>512.084272</ele>
        <time>2021-11-07T11:13:08.904Z</time>
      </trkpt>
      <trkpt lat="47.506641" lon="7.959810">
        <ele>508.534794</ele>
        <time>2021-11-07T11:13:13.290Z</time>
      </trkpt>
      <trkpt lat="47.506874" lon="7.960127">
        <ele>506.268844</ele>
        <time>2021-11-07T11:13:16.151Z</time>
      </trkpt>
      <trkpt lat="47.507319" lon="7.960495">
        <ele>502.618984</ele>
        <time>2021-11-07T11:13:20.779Z</time>
      </trkpt>
      <trkpt lat="47.509248" lon="7.961556">
        <ele>487.720168</ele>
        <time>2021-11-07T11:13:39.296Z</time>
      </trkpt>
      <trkpt lat="47.509385" lon="7.961632">
        <ele>486.656971</ele>
        <time>2021-11-07T11:13:40.577Z</time>
      </trkpt>
      <trkpt lat="47.509788" lon="7.961854">
        <ele>483.151993</ele>
        <time>2021-11-07T11:13:44.338Z</time>
      </trkpt>
      <trkpt lat="47.510127" lon="7.962072">
        <ele>480.017253</ele>
        <time>2021-11-07T11:13:47.584Z</time>
      </trkpt>
      <trkpt lat="47.510301" lon="7.962209">
        <ele>478.345757</ele>
        <time>2021-11-07T11:13:49.295Z</time>
      </trkpt>
      <trkpt lat="47.510406" lon="7.962296">
        <ele>477.325219</ele>
        <time>2021-11-07T11:13:50.366Z</time>
      </trkpt>
      <trkpt lat="47.510552" lon="7.962453">
        <ele>475.794750</ele>
        <time>2021-11-07T11:13:51.955Z</time>
      </trkpt>
      <trkpt lat="47.510679" lon="7.962576">
        <ele>474.507596</ele>
        <time>2021-11-07T11:13:53.257Z</time>
      </trkpt>
      <trkpt lat="47.510706" lon="7.962606">
        <ele>474.221278</ele>
        <time>2021-11-07T11:13:53.556Z</time>
      </trkpt>
      <trkpt lat="47.510909" lon="7.962826">
        <ele>472.087545</ele>
        <time>2021-11-07T11:13:55.732Z</time>
      </trkpt>
      <trkpt lat="47.511697" lon="7.963783">
        <ele>465.112234</ele>
        <time>2021-11-07T11:14:04.804Z</time>
      </trkpt>
      <trkpt lat="47.511807" lon="7.963896">
        <ele>464.243291</ele>
        <time>2021-11-07T11:14:05.999Z</time>
      </trkpt>
      <trkpt lat="47.511885" lon="7.963977">
        <ele>463.624943</ele>
        <time>2021-11-07T11:14:06.896Z</time>
      </trkpt>
      <trkpt lat="47.512076" lon="7.964120">
        <ele>462.235831</ele>
        <time>2021-11-07T11:14:08.829Z</time>
      </trkpt>
      <trkpt lat="47.512806" lon="7.964495">
        <ele>458.552470</ele>
        <time>2021-11-07T11:14:16.171Z</time>
      </trkpt>
      <trkpt lat="47.513069" lon="7.964710">
        <ele>458.168884</ele>
        <time>2021-11-07T11:14:19.155Z</time>
      </trkpt>
      <trkpt lat="47.513387" lon="7.965176">
        <ele>457.597612</ele>
        <time>2021-11-07T11:14:24.135Z</time>
      </trkpt>
      <trkpt lat="47.513439" lon="7.965284">
        <ele>457.483233</ele>
        <time>2021-11-07T11:14:25.102Z</time>
      </trkpt>
      <trkpt lat="47.513496" lon="7.965435">
        <ele>457.334058</ele>
        <time>2021-11-07T11:14:26.863Z</time>
      </trkpt>
      <trkpt lat="47.513552" lon="7.965694">
        <ele>457.099538</ele>
        <time>2021-11-07T11:14:30.226Z</time>
      </trkpt>
      <trkpt lat="47.513574" lon="7.965795">
        <ele>457.008021</ele>
        <time>2021-11-07T11:14:31.254Z</time>
      </trkpt>
      <trkpt lat="47.513607" lon="7.966067">
        <ele>456.769702</ele>
        <time>2021-11-07T11:14:35.340Z</time>
      </trkpt>
      <trkpt lat="47.513677" lon="7.966493">
        <ele>457.323051</ele>
        <time>2021-11-07T11:14:41.829Z</time>
      </trkpt>
      <trkpt lat="47.513719" lon="7.966609">
        <ele>457.764643</ele>
        <time>2021-11-07T11:14:45.082Z</time>
      </trkpt>
      <trkpt lat="47.513963" lon="7.966968">
        <ele>459.473430</ele>
        <time>2021-11-07T11:14:55.412Z</time>
      </trkpt>
      <trkpt lat="47.514175" lon="7.967361">
        <ele>461.160935</ele>
        <time>2021-11-07T11:15:06.257Z</time>
      </trkpt>
      <trkpt lat="47.514265" lon="7.967596">
        <ele>462.067322</ele>
        <time>2021-11-07T11:15:12.880Z</time>
      </trkpt>
      <trkpt lat="47.514516" lon="7.968208">
        <ele>464.469568</ele>
        <time>2021-11-07T11:15:31.226Z</time>
      </trkpt>
      <trkpt lat="47.514581" lon="7.968390">
        <ele>465.160310</ele>
        <time>2021-11-07T11:15:38.554Z</time>
      </trkpt>
      <trkpt lat="47.514762" lon="7.968835">
        <ele>468.028621</ele>
        <time>2021-11-07T11:15:55.233Z</time>
      </trkpt>
      <trkpt lat="47.515012" lon="7.969232">
        <ele>471.328237</ele>
        <time>2021-11-07T11:16:13.682Z</time>
      </trkpt>
      <trkpt lat="47.515227" lon="7.969425">
        <ele>473.591247</ele>
        <time>2021-11-07T11:16:26.443Z</time>
      </trkpt>
      <trkpt lat="47.515307" lon="7.969493">
        <ele>474.421513</ele>
        <time>2021-11-07T11:16:31.811Z</time>
      </trkpt>
      <trkpt lat="47.515780" lon="7.969896">
        <ele>479.333333</ele>
        <time>2021-11-07T11:17:01.055Z</time>
      </trkpt>
      <trkpt lat="47.516258" lon="7.970425">
        <ele>483.691770</ele>
        <time>2021-11-07T11:17:32.116Z</time>
      </trkpt>
      <trkpt lat="47.516475" lon="7.970786">
        <ele>485.637315</ele>
        <time>2021-11-07T11:17:49.808Z</time>
      </trkpt>
      <trkpt lat="47.516639" lon="7.971156">
        <ele>487.418970</ele>
        <time>2021-11-07T11:18:04.640Z</time>
      </trkpt>
      <trkpt lat="47.516849" lon="7.971986">
        <ele>490.987091</ele>
        <time>2021-11-07T11:18:25.998Z</time>
      </trkpt>
      <trkpt lat="47.517017" lon="7.972944">
        <ele>490.185287</ele>
        <time>2021-11-07T11:18:33.747Z</time>
      </trkpt>
      <trkpt lat="47.517070" lon="7.973149">
        <ele>489.406816</ele>
        <time>2021-11-07T11:18:35.170Z</time>
      </trkpt>
      <trkpt lat="47.517191" lon="7.973538">
        <ele>487.887961</ele>
        <time>2021-11-07T11:18:37.962Z</time>
      </trkpt>
      <trkpt lat="47.517208" lon="7.973572">
        <ele>487.737934</ele>
        <time>2021-11-07T11:18:38.205Z</time>
      </trkpt>
      <trkpt lat="47.517263" lon="7.973683">
        <ele>487.249696</ele>
        <time>2021-11-07T11:18:39.038Z</time>
      </trkpt>
      <trkpt lat="47.517422" lon="7.973976">
        <ele>485.916714</ele>
        <time>2021-11-07T11:18:41.367Z</time>
      </trkpt>
      <trkpt lat="47.517539" lon="7.974133">
        <ele>485.087572</ele>
        <time>2021-11-07T11:18:42.760Z</time>
      </trkpt>
      <trkpt lat="47.517601" lon="7.974216">
        <ele>484.648666</ele>
        <time>2021-11-07T11:18:43.488Z</time>
      </trkpt>
      <trkpt lat="47.517803" lon="7.974479">
        <ele>483.236194</ele>
        <time>2021-11-07T11:18:45.836Z</time>
      </trkpt>
      <trkpt lat="47.517897" lon="7.974601">
        <ele>482.307056</ele>
        <time>2021-11-07T11:18:46.900Z</time>
      </trkpt>
      <trkpt lat="47.518511" lon="7.975376">
        <ele>475.197927</ele>
        <time>2021-11-07T11:18:53.811Z</time>
      </trkpt>
      <trkpt lat="47.518771" lon="7.975833">
        <ele>471.642057</ele>
        <time>2021-11-07T11:18:57.324Z</time>
      </trkpt>
      <trkpt lat="47.518954" lon="7.976318">
        <ele>468.336039</ele>
        <time>2021-11-07T11:19:00.665Z</time>
      </trkpt>
      <trkpt lat="47.519021" lon="7.976610">
        <ele>466.740174</ele>
        <time>2021-11-07T11:19:02.583Z</time>
      </trkpt>
      <trkpt lat="47.519068" lon="7.976937">
        <ele>465.503194</ele>
        <time>2021-11-07T11:19:04.672Z</time>
      </trkpt>
      <trkpt lat="47.519130" lon="7.977741">
        <ele>462.509110</ele>
        <time>2021-11-07T11:19:09.682Z</time>
      </trkpt>
      <trkpt lat="47.519217" lon="7.979377">
        <ele>456.748607</ele>
        <time>2021-11-07T11:19:20.171Z</time>
      </trkpt>
      <trkpt lat="47.519262" lon="7.980038">
        <ele>455.199189</ele>
        <time>2021-11-07T11:19:24.604Z</time>
      </trkpt>
      <trkpt lat="47.519321" lon="7.980745">
        <ele>453.537762</ele>
        <time>2021-11-07T11:19:29.390Z</time>
      </trkpt>
      <trkpt lat="47.519464" lon="7.981401">
        <ele>451.930096</ele>
        <time>2021-11-07T11:19:34.100Z</time>
      </trkpt>
      <trkpt lat="47.519731" lon="7.981940">
        <ele>450.673669</ele>
        <time>2021-11-07T11:19:38.878Z</time>
      </trkpt>
      <trkpt lat="47.519803" lon="7.982060">
        <ele>450.461821</ele>
        <time>2021-11-07T11:19:40.170Z</time>
      </trkpt>
      <trkpt lat="47.519918" lon="7.982214">
        <ele>450.158811</ele>
        <time>2021-11-07T11:19:41.849Z</time>
      </trkpt>
      <trkpt lat="47.520345" lon="7.982548">
        <ele>449.215082</ele>
        <time>2021-11-07T11:19:47.510Z</time>
      </trkpt>
      <trkpt lat="47.520871" lon="7.982711">
        <ele>448.164885</ele>
        <time>2021-11-07T11:19:53.626Z</time>
      </trkpt>
      <trkpt lat="47.522127" lon="7.982533">
        <ele>444.189588</ele>
        <time>2021-11-07T11:20:07.198Z</time>
      </trkpt>
      <trkpt lat="47.522790" lon="7.982608">
        <ele>441.832092</ele>
        <time>2021-11-07T11:20:13.582Z</time>
      </trkpt>
      <trkpt lat="47.523017" lon="7.982688">
        <ele>440.830321</ele>
        <time>2021-11-07T11:20:15.744Z</time>
      </trkpt>
      <trkpt lat="47.523263" lon="7.982795">
        <ele>438.995174</ele>
        <time>2021-11-07T11:20:18.165Z</time>
      </trkpt>
      <trkpt lat="47.523294" lon="7.982808">
        <ele>438.764564</ele>
        <time>2021-11-07T11:20:18.431Z</time>
      </trkpt>
      <trkpt lat="47.524375" lon="7.983532">
        <ele>430.272679</ele>
        <time>2021-11-07T11:20:29.019Z</time>
      </trkpt>
      <trkpt lat="47.524635" lon="7.983601">
        <ele>428.382062</ele>
        <time>2021-11-07T11:20:31.314Z</time>
      </trkpt>
      <trkpt lat="47.525374" lon="7.983611">
        <ele>422.168091</ele>
        <time>2021-11-07T11:20:37.840Z</time>
      </trkpt>
      <trkpt lat="47.525678" lon="7.983718">
        <ele>419.534775</ele>
        <time>2021-11-07T11:20:40.590Z</time>
      </trkpt>
      <trkpt lat="47.526507" lon="7.984423">
        <ele>411.152976</ele>
        <time>2021-11-07T11:20:48.948Z</time>
      </trkpt>
      <trkpt lat="47.527147" lon="7.984868">
        <ele>404.030357</ele>
        <time>2021-11-07T11:20:55.097Z</time>
      </trkpt>
      <trkpt lat="47.528802" lon="7.985465">
        <ele>384.651307</ele>
        <time>2021-11-07T11:21:09.607Z</time>
      </trkpt>
      <trkpt lat="47.529179" lon="7.985784">
        <ele>379.086854</ele>
        <time>2021-11-07T11:21:13.251Z</time>
      </trkpt>
      <trkpt lat="47.529869" lon="7.987016">
        <ele>364.631624</ele>
        <time>2021-11-07T11:21:22.232Z</time>
      </trkpt>
      <trkpt lat="47.530434" lon="7.987618">
        <ele>354.911634</ele>
        <time>2021-11-07T11:21:28.025Z</time>
      </trkpt>
      <trkpt lat="47.530575" lon="7.987827">
        <ele>352.125788</ele>
        <time>2021-11-07T11:21:29.681Z</time>
      </trkpt>
      <trkpt lat="47.530638" lon="7.987902">
        <ele>350.996999</ele>
        <time>2021-11-07T11:21:30.360Z</time>
      </trkpt>
      <trkpt lat="47.530767" lon="7.988021">
        <ele>348.874634</ele>
        <time>2021-11-07T11:21:31.652Z</time>
      </trkpt>
      <trkpt lat="47.531141" lon="7.988178">
        <ele>344.883174</ele>
        <time>2021-11-07T11:21:34.946Z</time>
      </trkpt>
      <trkpt lat="47.531266" lon="7.988266">
        <ele>343.765073</ele>
        <time>2021-11-07T11:21:36.111Z</time>
      </trkpt>
      <trkpt lat="47.531375" lon="7.988390">
        <ele>342.654725</ele>
        <time>2021-11-07T11:21:37.358Z</time>
      </trkpt>
      <trkpt lat="47.531451" lon="7.988494">
        <ele>341.818804</ele>
        <time>2021-11-07T11:21:38.240Z</time>
      </trkpt>
      <trkpt lat="47.531554" lon="7.988719">
        <ele>340.336040</ele>
        <time>2021-11-07T11:21:39.829Z</time>
      </trkpt>
      <trkpt lat="47.531585" lon="7.988785">
        <ele>339.897499</ele>
        <time>2021-11-07T11:21:40.366Z</time>
      </trkpt>
      <trkpt lat="47.531632" lon="7.988909">
        <ele>339.121848</ele>
        <time>2021-11-07T11:21:41.186Z</time>
      </trkpt>
      <trkpt lat="47.531849" lon="7.989381">
        <ele>336.007132</ele>
        <time>2021-11-07T11:21:44.667Z</time>
      </trkpt>
      <trkpt lat="47.531897" lon="7.989450">
        <ele>335.466747</ele>
        <time>2021-11-07T11:21:45.252Z</time>
      </trkpt>
      <trkpt lat="47.531823" lon="7.989607">
        <ele>334.422364</ele>
        <time>2021-11-07T11:21:46.591Z</time>
      </trkpt>
      <trkpt lat="47.531667" lon="7.989873">
        <ele>332.500546</ele>
        <time>2021-11-07T11:21:48.800Z</time>
      </trkpt>
      <trkpt lat="47.531363" lon="7.990436">
        <ele>331.084648</ele>
        <time>2021-11-07T11:21:53.691Z</time>
      </trkpt>
      <trkpt lat="47.531749" lon="7.990883">
        <ele>329.777613</ele>
        <time>2021-11-07T11:22:01.075Z</time>
      </trkpt>
      <trkpt lat="47.531749" lon="7.990883">
        <ele>329.777613</ele>
        <time>2021-11-07T11:22:01.090Z</time>
      </trkpt>
      <trkpt lat="47.531759" lon="7.991008">
        <ele>329.550907</ele>
        <time>2021-11-07T11:22:02.278Z</time>
      </trkpt>
      <trkpt lat="47.531562" lon="7.991925">
        <ele>327.817751</ele>
        <time>2021-11-07T11:22:13.027Z</time>
      </trkpt>
      <trkpt lat="47.531336" lon="7.992338">
        <ele>327.276381</ele>
        <time>2021-11-07T11:22:19.307Z</time>
      </trkpt>
      <trkpt lat="47.531387" lon="7.992456">
        <ele>327.181479</ele>
        <time>2021-11-07T11:22:21.016Z</time>
      </trkpt>
      <trkpt lat="47.531392" lon="7.992656">
        <ele>327.045915</ele>
        <time>2021-11-07T11:22:23.448Z</time>
      </trkpt>
      <trkpt lat="47.531323" lon="7.992837">
        <ele>326.905122</ele>
        <time>2021-11-07T11:22:25.753Z</time>
      </trkpt>
      <trkpt lat="47.531297" lon="7.992935">
        <ele>326.833800</ele>
        <time>2021-11-07T11:22:26.980Z</time>
      </trkpt>
      <trkpt lat="47.531298" lon="7.993004">
        <ele>326.787052</ele>
        <time>2021-11-07T11:22:27.822Z</time>
      </trkpt>
      <trkpt lat="47.531342" lon="7.993200">
        <ele>326.647144</ele>
        <time>2021-11-07T11:22:30.414Z</time>
      </trkpt>
      <trkpt lat="47.531374" lon="7.993263">
        <ele>326.593743</ele>
        <time>2021-11-07T11:22:31.441Z</time>
      </trkpt>
      <trkpt lat="47.531301" lon="7.993435">
        <ele>326.456132</ele>
        <time>2021-11-07T11:22:34.049Z</time>
      </trkpt>
      <trkpt lat="47.531222" lon="7.993523">
        <ele>326.356965</ele>
        <time>2021-11-07T11:22:35.799Z</time>
      </trkpt>
      <trkpt lat="47.531135" lon="7.993591">
        <ele>326.258277</ele>
        <time>2021-11-07T11:22:37.657Z</time>
      </trkpt>
      <trkpt lat="47.531189" lon="7.993709">
        <ele>326.161719</ele>
        <time>2021-11-07T11:22:39.360Z</time>
      </trkpt>
      <trkpt lat="47.531229" lon="7.993825">
        <ele>326.073492</ele>
        <time>2021-11-07T11:22:40.786Z</time>
      </trkpt>
      <trkpt lat="47.531213" lon="7.993959">
        <ele>325.981317</ele>
        <time>2021-11-07T11:22:42.264Z</time>
      </trkpt>
      <trkpt lat="47.531174" lon="7.994082">
        <ele>325.889273</ele>
        <time>2021-11-07T11:22:44.026Z</time>
      </trkpt>
      <trkpt lat="47.531127" lon="7.994292">
        <ele>325.739416</ele>
        <time>2021-11-07T11:22:46.716Z</time>
      </trkpt>
      <trkpt lat="47.531019" lon="7.994829">
        <ele>324.801416</ele>
        <time>2021-11-07T11:22:53.037Z</time>
      </trkpt>
      <trkpt lat="47.530847" lon="7.995663">
        <ele>323.301707</ele>
        <time>2021-11-07T11:23:02.095Z</time>
      </trkpt>
      <trkpt lat="47.530913" lon="7.996007">
        <ele>322.686683</ele>
        <time>2021-11-07T11:23:05.581Z</time>
      </trkpt>
      <trkpt lat="47.530706" lon="7.996149">
        <ele>322.105625</ele>
        <time>2021-11-07T11:23:08.851Z</time>
      </trkpt>
      <trkpt lat="47.530590" lon="7.996224">
        <ele>321.783236</ele>
        <time>2021-11-07T11:23:10.651Z</time>
      </trkpt>
      <trkpt lat="47.530713" lon="7.996416">
        <ele>321.328062</ele>
        <time>2021-11-07T11:23:13.168Z</time>
      </trkpt>
      <trkpt lat="47.530978" lon="7.996954">
        <ele>320.489947</ele>
        <time>2021-11-07T11:23:19.731Z</time>
      </trkpt>
      <trkpt lat="47.531173" lon="7.997275">
        <ele>319.985282</ele>
        <time>2021-11-07T11:23:24.103Z</time>
      </trkpt>
      <trkpt lat="47.531388" lon="7.997546">
        <ele>319.496586</ele>
        <time>2021-11-07T11:23:28.608Z</time>
      </trkpt>
      <trkpt lat="47.531480" lon="7.997629">
        <ele>319.310116</ele>
        <time>2021-11-07T11:23:30.329Z</time>
      </trkpt>
      <trkpt lat="47.531548" lon="7.997703">
        <ele>319.164051</ele>
        <time>2021-11-07T11:23:31.972Z</time>
      </trkpt>
      <trkpt lat="47.531662" lon="7.997822">
        <ele>318.922631</ele>
        <time>2021-11-07T11:23:34.390Z</time>
      </trkpt>
      <trkpt lat="47.531784" lon="7.997942">
        <ele>318.669121</ele>
        <time>2021-11-07T11:23:36.745Z</time>
      </trkpt>
      <trkpt lat="47.531992" lon="7.998158">
        <ele>318.229391</ele>
        <time>2021-11-07T11:23:41.529Z</time>
      </trkpt>
      <trkpt lat="47.532160" lon="7.998422">
        <ele>318.160138</ele>
        <time>2021-11-07T11:23:46.366Z</time>
      </trkpt>
      <trkpt lat="47.532258" lon="7.998707">
        <ele>318.381962</ele>
        <time>2021-11-07T11:23:50.924Z</time>
      </trkpt>
      <trkpt lat="47.532314" lon="7.998991">
        <ele>318.587162</ele>
        <time>2021-11-07T11:23:55.850Z</time>
      </trkpt>
      <trkpt lat="47.532321" lon="7.999312">
        <ele>318.809911</ele>
        <time>2021-11-07T11:24:00.993Z</time>
      </trkpt>
      <trkpt lat="47.532283" lon="7.999633">
        <ele>319.035941</ele>
        <time>2021-11-07T11:24:06.766Z</time>
      </trkpt>
      <trkpt lat="47.532176" lon="8.000088">
        <ele>319.370106</ele>
        <time>2021-11-07T11:24:15.345Z</time>
      </trkpt>
      <trkpt lat="47.531789" lon="8.001140">
        <ele>320.535219</ele>
        <time>2021-11-07T11:24:37.046Z</time>
      </trkpt>
      <trkpt lat="47.531407" lon="8.001793">
        <ele>321.750026</ele>
        <time>2021-11-07T11:24:53.307Z</time>
      </trkpt>
      <trkpt lat="47.531127" lon="8.002157">
        <ele>322.525855</ele>
        <time>2021-11-07T11:25:04.283Z</time>
      </trkpt>
      <trkpt lat="47.530077" lon="8.003471">
        <ele>325.586346</ele>
        <time>2021-11-07T11:25:45.163Z</time>
      </trkpt>
      <trkpt lat="47.529391" lon="8.004422">
        <ele>327.762193</ele>
        <time>2021-11-07T11:26:13.429Z</time>
      </trkpt>
      <trkpt lat="47.529337" lon="8.004498">
        <ele>327.903656</ele>
        <time>2021-11-07T11:26:15.546Z</time>
      </trkpt>
      <trkpt lat="47.528852" lon="8.005150">
        <ele>329.103461</ele>
        <time>2021-11-07T11:26:32.763Z</time>
      </trkpt>
      <trkpt lat="47.527466" lon="8.006442">
        <ele>332.101830</ele>
        <time>2021-11-07T11:27:18.052Z</time>
      </trkpt>
      <trkpt lat="47.526398" lon="8.007517">
        <ele>334.414634</ele>
        <time>2021-11-07T11:27:53.862Z</time>
      </trkpt>
      <trkpt lat="47.525704" lon="8.008036">
        <ele>335.085581</ele>
        <time>2021-11-07T11:28:13.777Z</time>
      </trkpt>
      <trkpt lat="47.525125" lon="8.008474">
        <ele>335.646670</ele>
        <time>2021-11-07T11:28:28.754Z</time>
      </trkpt>
      <trkpt lat="47.523750" lon="8.009595">
        <ele>335.487606</ele>
        <time>2021-11-07T11:28:59.235Z</time>
      </trkpt>
      <trkpt lat="47.523475" lon="8.009886">
        <ele>335.369850</ele>
        <time>2021-11-07T11:29:05.433Z</time>
      </trkpt>
      <trkpt lat="47.522752" lon="8.010942">
        <ele>334.816450</ele>
        <time>2021-11-07T11:29:23.334Z</time>
      </trkpt>
      <trkpt lat="47.522135" lon="8.011541">
        <ele>334.376331</ele>
        <time>2021-11-07T11:29:36.571Z</time>
      </trkpt>
      <trkpt lat="47.521999" lon="8.011997">
        <ele>334.228149</ele>
        <time>2021-11-07T11:29:43.181Z</time>
      </trkpt>
      <trkpt lat="47.521884" lon="8.013019">
        <ele>334.270454</ele>
        <time>2021-11-07T11:29:57.874Z</time>
      </trkpt>
      <trkpt lat="47.521867" lon="8.013168">
        <ele>334.276625</ele>
        <time>2021-11-07T11:30:00.437Z</time>
      </trkpt>
      <trkpt lat="47.521857" lon="8.013314">
        <ele>334.282617</ele>
        <time>2021-11-07T11:30:01.909Z</time>
      </trkpt>
      <trkpt lat="47.521782" lon="8.013652">
        <ele>334.297144</ele>
        <time>2021-11-07T11:30:05.416Z</time>
      </trkpt>
      <trkpt lat="47.521611" lon="8.013949">
        <ele>334.313080</ele>
        <time>2021-11-07T11:30:09.016Z</time>
      </trkpt>
      <trkpt lat="47.521532" lon="8.014046">
        <ele>334.319285</ele>
        <time>2021-11-07T11:30:10.974Z</time>
      </trkpt>
      <trkpt lat="47.521508" lon="8.014076">
        <ele>334.321184</ele>
        <time>2021-11-07T11:30:11.462Z</time>
      </trkpt>
      <trkpt lat="47.521454" lon="8.014134">
        <ele>334.325218</ele>
        <time>2021-11-07T11:30:12.501Z</time>
      </trkpt>
      <trkpt lat="47.521292" lon="8.014319">
        <ele>334.371520</ele>
        <time>2021-11-07T11:30:15.358Z</time>
      </trkpt>
      <trkpt lat="47.521173" lon="8.014427">
        <ele>334.431747</ele>
        <time>2021-11-07T11:30:17.792Z</time>
      </trkpt>
      <trkpt lat="47.521150" lon="8.014447">
        <ele>334.443256</ele>
        <time>2021-11-07T11:30:18.163Z</time>
      </trkpt>
      <trkpt lat="47.520953" lon="8.014530">
        <ele>334.531638</ele>
        <time>2021-11-07T11:30:21.055Z</time>
      </trkpt>
      <trkpt lat="47.520848" lon="8.014542">
        <ele>334.577081</ele>
        <time>2021-11-07T11:30:22.966Z</time>
      </trkpt>
      <trkpt lat="47.520539" lon="8.014558">
        <ele>334.710500</ele>
        <time>2021-11-07T11:30:27.682Z</time>
      </trkpt>
      <trkpt lat="47.520115" lon="8.014648">
        <ele>334.895331</ele>
        <time>2021-11-07T11:30:34.343Z</time>
      </trkpt>
      <trkpt lat="47.519666" lon="8.015011">
        <ele>335.174560</ele>
        <time>2021-11-07T11:30:43.213Z</time>
      </trkpt>
      <trkpt lat="47.519564" lon="8.015041">
        <ele>335.552309</ele>
        <time>2021-11-07T11:30:45.403Z</time>
      </trkpt>
      <trkpt lat="47.519518" lon="8.015145">
        <ele>335.857283</ele>
        <time>2021-11-07T11:30:47.049Z</time>
      </trkpt>
      <trkpt lat="47.519424" lon="8.015360">
        <ele>336.485588</ele>
        <time>2021-11-07T11:30:50.186Z</time>
      </trkpt>
      <trkpt lat="47.519400" lon="8.015507">
        <ele>336.856588</ele>
        <time>2021-11-07T11:30:52.754Z</time>
      </trkpt>
      <trkpt lat="47.519346" lon="8.015845">
        <ele>337.708637</ele>
        <time>2021-11-07T11:30:59.003Z</time>
      </trkpt>
      <trkpt lat="47.519330" lon="8.015986">
        <ele>338.059380</ele>
        <time>2021-11-07T11:31:01.727Z</time>
      </trkpt>
      <trkpt lat="47.519392" lon="8.016026">
        <ele>338.305041</ele>
        <time>2021-11-07T11:31:03.683Z</time>
      </trkpt>
      <trkpt lat="47.519574" lon="8.016076">
        <ele>338.977430</ele>
        <time>2021-11-07T11:31:09.357Z</time>
      </trkpt>
      <trkpt lat="47.519622" lon="8.016046">
        <ele>339.166683</ele>
        <time>2021-11-07T11:31:10.970Z</time>
      </trkpt>
      <trkpt lat="47.519767" lon="8.015956">
        <ele>339.737790</ele>
        <time>2021-11-07T11:31:16.019Z</time>
      </trkpt>
      <trkpt lat="47.520295" lon="8.015961">
        <ele>341.669167</ele>
        <time>2021-11-07T11:31:35.882Z</time>
      </trkpt>
      <trkpt lat="47.520530" lon="8.015969">
        <ele>343.335596</ele>
        <time>2021-11-07T11:31:45.008Z</time>
      </trkpt>
      <trkpt lat="47.520550" lon="8.015970">
        <ele>343.477463</ele>
        <time>2021-11-07T11:31:46.764Z</time>
      </trkpt>
      <trkpt lat="47.520795" lon="8.015952">
        <ele>345.216481</ele>
        <time>2021-11-07T11:31:55.787Z</time>
      </trkpt>
      <trkpt lat="47.521238" lon="8.015860">
        <ele>348.387782</ele>
        <time>2021-11-07T11:32:16.776Z</time>
      </trkpt>
      <trkpt lat="47.521584" lon="8.015785">
        <ele>350.866825</ele>
        <time>2021-11-07T11:32:33.806Z</time>
      </trkpt>
      <trkpt lat="47.522033" lon="8.015759">
        <ele>354.052359</ele>
        <time>2021-11-07T11:32:54.076Z</time>
      </trkpt>
      <trkpt lat="47.522222" lon="8.015828">
        <ele>355.324048</ele>
        <time>2021-11-07T11:33:01.597Z</time>
      </trkpt>
      <trkpt lat="47.522471" lon="8.016001">
        <ele>357.070766</ele>
        <time>2021-11-07T11:33:11.315Z</time>
      </trkpt>
      <trkpt lat="47.522497" lon="8.016018">
        <ele>357.251263</ele>
        <time>2021-11-07T11:33:13.632Z</time>
      </trkpt>
      <trkpt lat="47.522786" lon="8.016184">
        <ele>359.219840</ele>
        <time>2021-11-07T11:33:25.315Z</time>
      </trkpt>
      <trkpt lat="47.522999" lon="8.016213">
        <ele>360.578237</ele>
        <time>2021-11-07T11:33:35.179Z</time>
      </trkpt>
      <trkpt lat="47.523079" lon="8.016048">
        <ele>361.449349</ele>
        <time>2021-11-07T11:33:39.383Z</time>
      </trkpt>
      <trkpt lat="47.523241" lon="8.015606">
        <ele>363.606088</ele>
        <time>2021-11-07T11:33:53.617Z</time>
      </trkpt>
      <trkpt lat="47.523366" lon="8.015263">
        <ele>365.277592</ele>
        <time>2021-11-07T11:34:05.214Z</time>
      </trkpt>
      <trkpt lat="47.523466" lon="8.015204">
        <ele>365.935830</ele>
        <time>2021-11-07T11:34:08.918Z</time>
      </trkpt>
      <trkpt lat="47.523825" lon="8.015233">
        <ele>367.821670</ele>
        <time>2021-11-07T11:34:21.966Z</time>
      </trkpt>
      <trkpt lat="47.524084" lon="8.015130">
        <ele>369.228321</ele>
        <time>2021-11-07T11:34:31.121Z</time>
      </trkpt>
      <trkpt lat="47.524496" lon="8.014823">
        <ele>371.647517</ele>
        <time>2021-11-07T11:34:46.295Z</time>
      </trkpt>
      <trkpt lat="47.524922" lon="8.014501">
        <ele>374.156229</ele>
        <time>2021-11-07T11:35:04.328Z</time>
      </trkpt>
      <trkpt lat="47.525215" lon="8.014101">
        <ele>376.228723</ele>
        <time>2021-11-07T11:35:18.624Z</time>
      </trkpt>
      <trkpt lat="47.525325" lon="8.013874">
        <ele>377.200706</ele>
        <time>2021-11-07T11:35:25.310Z</time>
      </trkpt>
      <trkpt lat="47.525637" lon="8.013233">
        <ele>379.949532</ele>
        <time>2021-11-07T11:35:42.724Z</time>
      </trkpt>
      <trkpt lat="47.525848" lon="8.013102">
        <ele>381.128217</ele>
        <time>2021-11-07T11:35:50.225Z</time>
      </trkpt>
      <trkpt lat="47.526117" lon="8.013111">
        <ele>382.514394</ele>
        <time>2021-11-07T11:35:59.657Z</time>
      </trkpt>
      <trkpt lat="47.526395" lon="8.013222">
        <ele>383.997726</ele>
        <time>2021-11-07T11:36:10.223Z</time>
      </trkpt>
      <trkpt lat="47.526587" lon="8.013319">
        <ele>385.228573</ele>
        <time>2021-11-07T11:36:18.517Z</time>
      </trkpt>
      <trkpt lat="47.526636" lon="8.013345">
        <ele>385.591243</ele>
        <time>2021-11-07T11:36:20.711Z</time>
      </trkpt>
      <trkpt lat="47.526999" lon="8.013687">
        <ele>388.588967</ele>
        <time>2021-11-07T11:36:37.646Z</time>
      </trkpt>
      <trkpt lat="47.527462" lon="8.014176">
        <ele>392.551348</ele>
        <time>2021-11-07T11:37:01.807Z</time>
      </trkpt>
      <trkpt lat="47.527676" lon="8.014372">
        <ele>394.304544</ele>
        <time>2021-11-07T11:37:12.766Z</time>
      </trkpt>
      <trkpt lat="47.528785" lon="8.014431">
        <ele>402.698183</ele>
        <time>2021-11-07T11:38:05.987Z</time>
      </trkpt>
      <trkpt lat="47.529398" lon="8.014588">
        <ele>407.607562</ele>
        <time>2021-11-07T11:38:35.213Z</time>
      </trkpt>
      <trkpt lat="47.529759" lon="8.014710">
        <ele>410.529672</ele>
        <time>2021-11-07T11:38:52.289Z</time>
      </trkpt>
      <trkpt lat="47.530938" lon="8.015160">
        <ele>417.821760</ele>
        <time>2021-11-07T11:39:44.131Z</time>
      </trkpt>
      <trkpt lat="47.531687" lon="8.015825">
        <ele>421.850648</ele>
        <time>2021-11-07T11:40:12.722Z</time>
      </trkpt>
      <trkpt lat="47.531949" lon="8.015963">
        <ele>422.001831</ele>
        <time>2021-11-07T11:40:19.140Z</time>
      </trkpt>
      <trkpt lat="47.532925" lon="8.016222">
        <ele>422.540907</ele>
        <time>2021-11-07T11:40:33.282Z</time>
      </trkpt>
      <trkpt lat="47.533259" lon="8.016300">
        <ele>422.685289</ele>
        <time>2021-11-07T11:40:37.142Z</time>
      </trkpt>
      <trkpt lat="47.533566" lon="8.016414">
        <ele>421.713574</ele>
        <time>2021-11-07T11:40:40.564Z</time>
      </trkpt>
      <trkpt lat="47.533816" lon="8.016543">
        <ele>420.900786</ele>
        <time>2021-11-07T11:40:43.336Z</time>
      </trkpt>
      <trkpt lat="47.534331" lon="8.017013">
        <ele>419.043602</ele>
        <time>2021-11-07T11:40:49.492Z</time>
      </trkpt>
      <trkpt lat="47.534795" lon="8.017741">
        <ele>417.038510</ele>
        <time>2021-11-07T11:40:56.057Z</time>
      </trkpt>
      <trkpt lat="47.535159" lon="8.018350">
        <ele>415.870439</ele>
        <time>2021-11-07T11:41:01.383Z</time>
      </trkpt>
      <trkpt lat="47.535318" lon="8.018571">
        <ele>415.406635</ele>
        <time>2021-11-07T11:41:03.581Z</time>
      </trkpt>
      <trkpt lat="47.535410" lon="8.018674">
        <ele>415.161328</ele>
        <time>2021-11-07T11:41:04.916Z</time>
      </trkpt>
      <trkpt lat="47.536286" lon="8.019184">
        <ele>413.635089</ele>
        <time>2021-11-07T11:41:16.582Z</time>
      </trkpt>
      <trkpt lat="47.536819" lon="8.019456">
        <ele>415.133675</ele>
        <time>2021-11-07T11:41:27.706Z</time>
      </trkpt>
      <trkpt lat="47.537265" lon="8.019697">
        <ele>416.395687</ele>
        <time>2021-11-07T11:41:38.773Z</time>
      </trkpt>
      <trkpt lat="47.537271" lon="8.019901">
        <ele>416.762137</ele>
        <time>2021-11-07T11:41:43.074Z</time>
      </trkpt>
      <trkpt lat="47.537254" lon="8.020933">
        <ele>419.073095</ele>
        <time>2021-11-07T11:42:08.254Z</time>
      </trkpt>
      <trkpt lat="47.537306" lon="8.022335">
        <ele>424.088976</ele>
        <time>2021-11-07T11:42:45.258Z</time>
      </trkpt>
      <trkpt lat="47.537440" lon="8.023201">
        <ele>427.262777</ele>
        <time>2021-11-07T11:43:04.774Z</time>
      </trkpt>
      <trkpt lat="47.537432" lon="8.023339">
        <ele>427.738008</ele>
        <time>2021-11-07T11:43:08.860Z</time>
      </trkpt>
      <trkpt lat="47.537408" lon="8.023455">
        <ele>428.075349</ele>
        <time>2021-11-07T11:43:11.821Z</time>
      </trkpt>
      <trkpt lat="47.536905" lon="8.026594">
        <ele>435.716993</ele>
        <time>2021-11-07T11:44:19.147Z</time>
      </trkpt>
      <trkpt lat="47.536855" lon="8.026870">
        <ele>435.975247</ele>
        <time>2021-11-07T11:44:23.591Z</time>
      </trkpt>
      <trkpt lat="47.536709" lon="8.027795">
        <ele>436.833740</ele>
        <time>2021-11-07T11:44:34.913Z</time>
      </trkpt>
      <trkpt lat="47.536682" lon="8.028015">
        <ele>437.035820</ele>
        <time>2021-11-07T11:44:38.512Z</time>
      </trkpt>
      <trkpt lat="47.536653" lon="8.028280">
        <ele>437.278435</ele>
        <time>2021-11-07T11:44:40.483Z</time>
      </trkpt>
      <trkpt lat="47.536661" lon="8.029001">
        <ele>436.195524</ele>
        <time>2021-11-07T11:44:46.845Z</time>
      </trkpt>
      <trkpt lat="47.536805" lon="8.030012">
        <ele>433.491571</ele>
        <time>2021-11-07T11:44:53.799Z</time>
      </trkpt>
      <trkpt lat="47.536859" lon="8.031173">
        <ele>430.408622</ele>
        <time>2021-11-07T11:45:01.034Z</time>
      </trkpt>
      <trkpt lat="47.536825" lon="8.031786">
        <ele>427.894548</ele>
        <time>2021-11-07T11:45:04.789Z</time>
      </trkpt>
      <trkpt lat="47.536790" lon="8.032135">
        <ele>426.452359</ele>
        <time>2021-11-07T11:45:06.941Z</time>
      </trkpt>
      <trkpt lat="47.536821" lon="8.032441">
        <ele>425.187582</ele>
        <time>2021-11-07T11:45:08.860Z</time>
      </trkpt>
      <trkpt lat="47.536980" lon="8.033061">
        <ele>422.476658</ele>
        <time>2021-11-07T11:45:12.975Z</time>
      </trkpt>
      <trkpt lat="47.537123" lon="8.033584">
        <ele>420.170238</ele>
        <time>2021-11-07T11:45:16.503Z</time>
      </trkpt>
      <trkpt lat="47.537175" lon="8.033726">
        <ele>419.512702</ele>
        <time>2021-11-07T11:45:17.492Z</time>
      </trkpt>
      <trkpt lat="47.537582" lon="8.034575">
        <ele>415.360986</ele>
        <time>2021-11-07T11:45:24.037Z</time>
      </trkpt>
      <trkpt lat="47.537879" lon="8.035520">
        <ele>411.204865</ele>
        <time>2021-11-07T11:45:30.390Z</time>
      </trkpt>
      <trkpt lat="47.537960" lon="8.035867">
        <ele>409.740965</ele>
        <time>2021-11-07T11:45:32.655Z</time>
      </trkpt>
      <trkpt lat="47.538017" lon="8.036280">
        <ele>408.275521</ele>
        <time>2021-11-07T11:45:35.306Z</time>
      </trkpt>
      <trkpt lat="47.538010" lon="8.036632">
        <ele>407.193012</ele>
        <time>2021-11-07T11:45:37.772Z</time>
      </trkpt>
      <trkpt lat="47.537973" lon="8.036710">
        <ele>406.899970</ele>
        <time>2021-11-07T11:45:38.341Z</time>
      </trkpt>
      <trkpt lat="47.537925" lon="8.036762">
        <ele>406.629194</ele>
        <time>2021-11-07T11:45:38.854Z</time>
      </trkpt>
      <trkpt lat="47.537515" lon="8.036963">
        <ele>404.662725</ele>
        <time>2021-11-07T11:45:43.005Z</time>
      </trkpt>
      <trkpt lat="47.536640" lon="8.036968">
        <ele>400.671380</ele>
        <time>2021-11-07T11:45:51.525Z</time>
      </trkpt>
      <trkpt lat="47.536422" lon="8.036834">
        <ele>399.538608</ele>
        <time>2021-11-07T11:45:53.800Z</time>
      </trkpt>
      <trkpt lat="47.536118" lon="8.036161">
        <ele>396.914902</ele>
        <time>2021-11-07T11:45:59.534Z</time>
      </trkpt>
      <trkpt lat="47.536038" lon="8.036102">
        <ele>396.485993</ele>
        <time>2021-11-07T11:46:00.441Z</time>
      </trkpt>
      <trkpt lat="47.535891" lon="8.036116">
        <ele>395.779030</ele>
        <time>2021-11-07T11:46:01.851Z</time>
      </trkpt>
      <trkpt lat="47.535685" lon="8.036304">
        <ele>394.617766</ele>
        <time>2021-11-07T11:46:04.099Z</time>
      </trkpt>
      <trkpt lat="47.535635" lon="8.036415">
        <ele>394.185399</ele>
        <time>2021-11-07T11:46:04.906Z</time>
      </trkpt>
      <trkpt lat="47.535541" lon="8.036623">
        <ele>393.374379</ele>
        <time>2021-11-07T11:46:06.425Z</time>
      </trkpt>
      <trkpt lat="47.535486" lon="8.036894">
        <ele>392.457466</ele>
        <time>2021-11-07T11:46:08.149Z</time>
      </trkpt>
      <trkpt lat="47.535541" lon="8.037405">
        <ele>389.758888</ele>
        <time>2021-11-07T11:46:11.287Z</time>
      </trkpt>
      <trkpt lat="47.535603" lon="8.037763">
        <ele>387.685480</ele>
        <time>2021-11-07T11:46:13.530Z</time>
      </trkpt>
      <trkpt lat="47.535873" lon="8.038069">
        <ele>384.860504</ele>
        <time>2021-11-07T11:46:16.560Z</time>
      </trkpt>
      <trkpt lat="47.536066" lon="8.038309">
        <ele>382.766529</ele>
        <time>2021-11-07T11:46:18.788Z</time>
      </trkpt>
      <trkpt lat="47.537246" lon="8.039781">
        <ele>367.883264</ele>
        <time>2021-11-07T11:46:32.059Z</time>
      </trkpt>
      <trkpt lat="47.537321" lon="8.039892">
        <ele>366.752670</ele>
        <time>2021-11-07T11:46:32.963Z</time>
      </trkpt>
      <trkpt lat="47.537434" lon="8.040115">
        <ele>364.745319</ele>
        <time>2021-11-07T11:46:34.573Z</time>
      </trkpt>
      <trkpt lat="47.537590" lon="8.040865">
        <ele>359.095446</ele>
        <time>2021-11-07T11:46:39.080Z</time>
      </trkpt>
      <trkpt lat="47.537697" lon="8.041635">
        <ele>354.356245</ele>
        <time>2021-11-07T11:46:43.570Z</time>
      </trkpt>
      <trkpt lat="47.537748" lon="8.041977">
        <ele>352.337534</ele>
        <time>2021-11-07T11:46:45.601Z</time>
      </trkpt>
      <trkpt lat="47.537814" lon="8.042475">
        <ele>349.412415</ele>
        <time>2021-11-07T11:46:48.580Z</time>
      </trkpt>
      <trkpt lat="47.537820" lon="8.042654">
        <ele>348.379438</ele>
        <time>2021-11-07T11:46:49.627Z</time>
      </trkpt>
      <trkpt lat="47.537814" lon="8.042851">
        <ele>347.242831</ele>
        <time>2021-11-07T11:46:50.869Z</time>
      </trkpt>
      <trkpt lat="47.537774" lon="8.043160">
        <ele>345.429396</ele>
        <time>2021-11-07T11:46:52.751Z</time>
      </trkpt>
      <trkpt lat="47.537732" lon="8.043404">
        <ele>343.978053</ele>
        <time>2021-11-07T11:46:54.343Z</time>
      </trkpt>
      <trkpt lat="47.537487" lon="8.044776">
        <ele>340.474923</ele>
        <time>2021-11-07T11:47:03.668Z</time>
      </trkpt>
      <trkpt lat="47.537460" lon="8.044932">
        <ele>340.176045</ele>
        <time>2021-11-07T11:47:05.052Z</time>
      </trkpt>
      <trkpt lat="47.537686" lon="8.045112">
        <ele>339.470656</ele>
        <time>2021-11-07T11:47:08.003Z</time>
      </trkpt>
      <trkpt lat="47.538203" lon="8.045387">
        <ele>337.960570</ele>
        <time>2021-11-07T11:47:14.619Z</time>
      </trkpt>
      <trkpt lat="47.538294" lon="8.045418">
        <ele>337.728320</ele>
        <time>2021-11-07T11:47:15.636Z</time>
      </trkpt>
      <trkpt lat="47.538340" lon="8.045430">
        <ele>337.665910</ele>
        <time>2021-11-07T11:47:16.208Z</time>
      </trkpt>
      <trkpt lat="47.538479" lon="8.045444">
        <ele>337.479752</ele>
        <time>2021-11-07T11:47:17.913Z</time>
      </trkpt>
      <trkpt lat="47.538763" lon="8.045382">
        <ele>337.096177</ele>
        <time>2021-11-07T11:47:21.172Z</time>
      </trkpt>
      <trkpt lat="47.538912" lon="8.045281">
        <ele>336.877230</ele>
        <time>2021-11-07T11:47:23.038Z</time>
      </trkpt>
      <trkpt lat="47.538984" lon="8.045208">
        <ele>336.760647</ele>
        <time>2021-11-07T11:47:23.971Z</time>
      </trkpt>
      <trkpt lat="47.539049" lon="8.045146">
        <ele>336.657347</ele>
        <time>2021-11-07T11:47:24.871Z</time>
      </trkpt>
      <trkpt lat="47.539168" lon="8.044994">
        <ele>336.447390</ele>
        <time>2021-11-07T11:47:26.636Z</time>
      </trkpt>
      <trkpt lat="47.539357" lon="8.044726">
        <ele>336.097795</ele>
        <time>2021-11-07T11:47:29.616Z</time>
      </trkpt>
      <trkpt lat="47.539485" lon="8.044571">
        <ele>335.876888</ele>
        <time>2021-11-07T11:47:31.825Z</time>
      </trkpt>
      <trkpt lat="47.539769" lon="8.044372">
        <ele>335.457098</ele>
        <time>2021-11-07T11:47:36.040Z</time>
      </trkpt>
      <trkpt lat="47.540105" lon="8.044383">
        <ele>334.923502</ele>
        <time>2021-11-07T11:47:39.996Z</time>
      </trkpt>
      <trkpt lat="47.540316" lon="8.044416">
        <ele>334.569536</ele>
        <time>2021-11-07T11:47:42.356Z</time>
      </trkpt>
      <trkpt lat="47.540484" lon="8.044413">
        <ele>334.289243</ele>
        <time>2021-11-07T11:47:44.505Z</time>
      </trkpt>
      <trkpt lat="47.540685" lon="8.044388">
        <ele>333.952736</ele>
        <time>2021-11-07T11:47:46.613Z</time>
      </trkpt>
      <trkpt lat="47.540801" lon="8.044393">
        <ele>333.759132</ele>
        <time>2021-11-07T11:47:48.180Z</time>
      </trkpt>
      <trkpt lat="47.540913" lon="8.044428">
        <ele>333.568171</ele>
        <time>2021-11-07T11:47:49.419Z</time>
      </trkpt>
      <trkpt lat="47.540994" lon="8.044486">
        <ele>333.418080</ele>
        <time>2021-11-07T11:47:50.337Z</time>
      </trkpt>
      <trkpt lat="47.541082" lon="8.044576">
        <ele>333.239680</ele>
        <time>2021-11-07T11:47:51.873Z</time>
      </trkpt>
      <trkpt lat="47.541181" lon="8.044448">
        <ele>333.020458</ele>
        <time>2021-11-07T11:47:53.335Z</time>
      </trkpt>
      <trkpt lat="47.541242" lon="8.044402">
        <ele>332.906265</ele>
        <time>2021-11-07T11:47:54.023Z</time>
      </trkpt>
      <trkpt lat="47.541299" lon="8.044369">
        <ele>332.804168</ele>
        <time>2021-11-07T11:47:54.650Z</time>
      </trkpt>
      <trkpt lat="47.541407" lon="8.044320">
        <ele>332.615731</ele>
        <time>2021-11-07T11:47:56.237Z</time>
      </trkpt>
      <trkpt lat="47.541497" lon="8.044288">
        <ele>332.461321</ele>
        <time>2021-11-07T11:47:57.234Z</time>
      </trkpt>
      <trkpt lat="47.541871" lon="8.044264">
        <ele>331.420871</ele>
        <time>2021-11-07T11:48:01.304Z</time>
      </trkpt>
      <trkpt lat="47.541931" lon="8.044267">
        <ele>331.239143</ele>
        <time>2021-11-07T11:48:01.868Z</time>
      </trkpt>
      <trkpt lat="47.542130" lon="8.044303">
        <ele>330.632278</ele>
        <time>2021-11-07T11:48:04.019Z</time>
      </trkpt>
      <trkpt lat="47.542217" lon="8.044311">
        <ele>330.368415</ele>
        <time>2021-11-07T11:48:04.909Z</time>
      </trkpt>
      <trkpt lat="47.542342" lon="8.044323">
        <ele>329.989236</ele>
        <time>2021-11-07T11:48:06.117Z</time>
      </trkpt>
      <trkpt lat="47.542515" lon="8.044335">
        <ele>329.464978</ele>
        <time>2021-11-07T11:48:07.905Z</time>
      </trkpt>
      <trkpt lat="47.542941" lon="8.044348">
        <ele>328.175167</ele>
        <time>2021-11-07T11:48:12.029Z</time>
      </trkpt>
      <trkpt lat="47.543113" lon="8.044348">
        <ele>327.654509</ele>
        <time>2021-11-07T11:48:13.717Z</time>
      </trkpt>
      <trkpt lat="47.543344" lon="8.044345">
        <ele>326.955227</ele>
        <time>2021-11-07T11:48:16.129Z</time>
      </trkpt>
      <trkpt lat="47.543429" lon="8.044346">
        <ele>326.785651</ele>
        <time>2021-11-07T11:48:16.957Z</time>
      </trkpt>
      <trkpt lat="47.543537" lon="8.044348">
        <ele>326.598694</ele>
        <time>2021-11-07T11:48:18.108Z</time>
      </trkpt>
      <trkpt lat="47.543748" lon="8.044351">
        <ele>326.233448</ele>
        <time>2021-11-07T11:48:20.438Z</time>
      </trkpt>
      <trkpt lat="47.543766" lon="8.044352">
        <ele>326.202269</ele>
        <time>2021-11-07T11:48:20.616Z</time>
      </trkpt>
      <trkpt lat="47.544716" lon="8.044385">
        <ele>324.557419</ele>
        <time>2021-11-07T11:48:31.620Z</time>
      </trkpt>
      <trkpt lat="47.544756" lon="8.044387">
        <ele>324.488142</ele>
        <time>2021-11-07T11:48:32.062Z</time>
      </trkpt>
      <trkpt lat="47.544980" lon="8.044395">
        <ele>324.100298</ele>
        <time>2021-11-07T11:48:34.785Z</time>
      </trkpt>
      <trkpt lat="47.545593" lon="8.044410">
        <ele>323.461233</ele>
        <time>2021-11-07T11:48:42.344Z</time>
      </trkpt>
      <trkpt lat="47.545699" lon="8.044413">
        <ele>323.380961</ele>
        <time>2021-11-07T11:48:43.753Z</time>
      </trkpt>
      <trkpt lat="47.546375" lon="8.044435">
        <ele>322.869004</ele>
        <time>2021-11-07T11:48:52.099Z</time>
      </trkpt>
      <trkpt lat="47.546609" lon="8.044441">
        <ele>322.691805</ele>
        <time>2021-11-07T11:48:55.133Z</time>
      </trkpt>
      <trkpt lat="47.547110" lon="8.044384">
        <ele>322.318409</ele>
        <time>2021-11-07T11:49:01.847Z</time>
      </trkpt>
      <trkpt lat="47.547324" lon="8.044298">
        <ele>322.160707</ele>
        <time>2021-11-07T11:49:05.036Z</time>
      </trkpt>
      <trkpt lat="47.547545" lon="8.044164">
        <ele>321.990873</ele>
        <time>2021-11-07T11:49:08.253Z</time>
      </trkpt>
      <trkpt lat="47.547710" lon="8.044026">
        <ele>321.856113</ele>
        <time>2021-11-07T11:49:10.877Z</time>
      </trkpt>
      <trkpt lat="47.547874" lon="8.043865">
        <ele>321.716189</ele>
        <time>2021-11-07T11:49:13.396Z</time>
      </trkpt>
      <trkpt lat="47.548086" lon="8.043564">
        <ele>321.507350</ele>
        <time>2021-11-07T11:49:17.194Z</time>
      </trkpt>
      <trkpt lat="47.548321" lon="8.043094">
        <ele>321.226563</ele>
        <time>2021-11-07T11:49:22.079Z</time>
      </trkpt>
      <trkpt lat="47.548412" lon="8.042841">
        <ele>320.997400</ele>
        <time>2021-11-07T11:49:24.360Z</time>
      </trkpt>
      <trkpt lat="47.548524" lon="8.042433">
        <ele>320.460364</ele>
        <time>2021-11-07T11:49:27.749Z</time>
      </trkpt>
      <trkpt lat="47.548724" lon="8.041601">
        <ele>319.383509</ele>
        <time>2021-11-07T11:49:34.518Z</time>
      </trkpt>
      <trkpt lat="47.548827" lon="8.041204">
        <ele>318.864929</ele>
        <time>2021-11-07T11:49:37.697Z</time>
      </trkpt>
      <trkpt lat="47.548984" lon="8.040683">
        <ele>318.169252</ele>
        <time>2021-11-07T11:49:41.842Z</time>
      </trkpt>
      <trkpt lat="47.549410" lon="8.039725">
        <ele>316.750033</ele>
        <time>2021-11-07T11:49:50.026Z</time>
      </trkpt>
      <trkpt lat="47.549870" lon="8.038947">
        <ele>315.466112</ele>
        <time>2021-11-07T11:49:57.651Z</time>
      </trkpt>
      <trkpt lat="47.549942" lon="8.038834">
        <ele>315.273210</ele>
        <time>2021-11-07T11:49:58.869Z</time>
      </trkpt>
      <trkpt lat="47.550081" lon="8.038625">
        <ele>314.908981</ele>
        <time>2021-11-07T11:50:01.301Z</time>
      </trkpt>
      <trkpt lat="47.550288" lon="8.038288">
        <ele>314.554608</ele>
        <time>2021-11-07T11:50:05.184Z</time>
      </trkpt>
      <trkpt lat="47.550415" lon="8.038099">
        <ele>314.505670</ele>
        <time>2021-11-07T11:50:07.460Z</time>
      </trkpt>
      <trkpt lat="47.550520" lon="8.037972">
        <ele>314.468819</ele>
        <time>2021-11-07T11:50:09.575Z</time>
      </trkpt>
      <trkpt lat="47.550627" lon="8.037879">
        <ele>314.435093</ele>
        <time>2021-11-07T11:50:11.143Z</time>
      </trkpt>
      <trkpt lat="47.550697" lon="8.037820">
        <ele>314.413198</ele>
        <time>2021-11-07T11:50:12.304Z</time>
      </trkpt>
      <trkpt lat="47.551000" lon="8.037822">
        <ele>314.330821</ele>
        <time>2021-11-07T11:50:16.614Z</time>
      </trkpt>
      <trkpt lat="47.551038" lon="8.037822">
        <ele>314.320490</ele>
        <time>2021-11-07T11:50:17.162Z</time>
      </trkpt>
      <trkpt lat="47.551249" lon="8.038008">
        <ele>314.253740</ele>
        <time>2021-11-07T11:50:20.788Z</time>
      </trkpt>
      <trkpt lat="47.551401" lon="8.038402">
        <ele>314.170466</ele>
        <time>2021-11-07T11:50:25.536Z</time>
      </trkpt>
      <trkpt lat="47.551405" lon="8.038736">
        <ele>314.109170</ele>
        <time>2021-11-07T11:50:28.646Z</time>
      </trkpt>
      <trkpt lat="47.551379" lon="8.038856">
        <ele>314.127412</ele>
        <time>2021-11-07T11:50:30.163Z</time>
      </trkpt>
      <trkpt lat="47.551371" lon="8.038893">
        <ele>314.138475</ele>
        <time>2021-11-07T11:50:30.509Z</time>
      </trkpt>
      <trkpt lat="47.551237" lon="8.039168">
        <ele>314.235052</ele>
        <time>2021-11-07T11:50:33.615Z</time>
      </trkpt>
      <trkpt lat="47.551141" lon="8.039284">
        <ele>314.287314</ele>
        <time>2021-11-07T11:50:35.827Z</time>
      </trkpt>
      <trkpt lat="47.551141" lon="8.039284">
        <ele>314.287314</ele>
        <time>2021-11-07T11:50:35.896Z</time>
      </trkpt>
      <trkpt lat="47.551141" lon="8.039284">
        <ele>314.287314</ele>
        <time>2021-11-07T11:50:35.923Z</time>
      </trkpt>
      <trkpt lat="47.551001" lon="8.039426">
        <ele>314.358891</ele>
        <time>2021-11-07T11:50:38.367Z</time>
      </trkpt>
      <trkpt lat="47.550515" lon="8.038174">
        <ele>314.770144</ele>
        <time>2021-11-07T11:50:54.823Z</time>
      </trkpt>
      <trkpt lat="47.550424" lon="8.037956">
        <ele>314.843131</ele>
        <time>2021-11-07T11:50:57.867Z</time>
      </trkpt>
      <trkpt lat="47.550111" lon="8.037123">
        <ele>315.390399</ele>
        <time>2021-11-07T11:51:10.241Z</time>
      </trkpt>
      <trkpt lat="47.549832" lon="8.036349">
        <ele>315.912046</ele>
        <time>2021-11-07T11:51:21.524Z</time>
      </trkpt>
      <trkpt lat="47.549753" lon="8.036077">
        <ele>316.088085</ele>
        <time>2021-11-07T11:51:25.013Z</time>
      </trkpt>
      <trkpt lat="47.549699" lon="8.035900">
        <ele>316.203561</ele>
        <time>2021-11-07T11:51:27.460Z</time>
      </trkpt>
      <trkpt lat="47.549632" lon="8.035633">
        <ele>316.372906</ele>
        <time>2021-11-07T11:51:30.946Z</time>
      </trkpt>
      <trkpt lat="47.549554" lon="8.035288">
        <ele>316.477331</ele>
        <time>2021-11-07T11:51:35.238Z</time>
      </trkpt>
      <trkpt lat="47.549494" lon="8.034935">
        <ele>316.525486</ele>
        <time>2021-11-07T11:51:39.222Z</time>
      </trkpt>
      <trkpt lat="47.549442" lon="8.034584">
        <ele>316.573025</ele>
        <time>2021-11-07T11:51:43.077Z</time>
      </trkpt>
      <trkpt lat="47.549395" lon="8.034029">
        <ele>316.647021</ele>
        <time>2021-11-07T11:51:49.139Z</time>
      </trkpt>
      <trkpt lat="47.549394" lon="8.034003">
        <ele>316.650466</ele>
        <time>2021-11-07T11:51:49.453Z</time>
      </trkpt>
      <trkpt lat="47.549386" lon="8.033799">
        <ele>316.677499</ele>
        <time>2021-11-07T11:51:51.618Z</time>
      </trkpt>
      <trkpt lat="47.549374" lon="8.033423">
        <ele>316.727295</ele>
        <time>2021-11-07T11:51:55.251Z</time>
      </trkpt>
      <trkpt lat="47.549363" lon="8.032869">
        <ele>316.799391</ele>
        <time>2021-11-07T11:52:00.507Z</time>
      </trkpt>
      <trkpt lat="47.549368" lon="8.032544">
        <ele>316.823432</ele>
        <time>2021-11-07T11:52:03.482Z</time>
      </trkpt>
      <trkpt lat="47.549372" lon="8.031883">
        <ele>316.872317</ele>
        <time>2021-11-07T11:52:09.838Z</time>
      </trkpt>
      <trkpt lat="47.549378" lon="8.030790">
        <ele>316.953151</ele>
        <time>2021-11-07T11:52:21.167Z</time>
      </trkpt>
      <trkpt lat="47.549380" lon="8.030702">
        <ele>316.959662</ele>
        <time>2021-11-07T11:52:22.007Z</time>
      </trkpt>
      <trkpt lat="47.549418" lon="8.028906">
        <ele>317.464534</ele>
        <time>2021-11-07T11:52:42.714Z</time>
      </trkpt>
      <trkpt lat="47.549431" lon="8.028306">
        <ele>317.678071</ele>
        <time>2021-11-07T11:52:49.459Z</time>
      </trkpt>
      <trkpt lat="47.549445" lon="8.027599">
        <ele>317.929667</ele>
        <time>2021-11-07T11:52:57.636Z</time>
      </trkpt>
      <trkpt lat="47.549454" lon="8.027138">
        <ele>318.091741</ele>
        <time>2021-11-07T11:53:03.162Z</time>
      </trkpt>
      <trkpt lat="47.549436" lon="8.026046">
        <ele>318.475202</ele>
        <time>2021-11-07T11:53:16.446Z</time>
      </trkpt>
      <trkpt lat="47.549322" lon="8.024323">
        <ele>318.818167</ele>
        <time>2021-11-07T11:53:35.051Z</time>
      </trkpt>
      <trkpt lat="47.549268" lon="8.023385">
        <ele>318.721027</ele>
        <time>2021-11-07T11:53:44.498Z</time>
      </trkpt>
      <trkpt lat="47.549201" lon="8.022146">
        <ele>318.529341</ele>
        <time>2021-11-07T11:53:55.714Z</time>
      </trkpt>
      <trkpt lat="47.549191" lon="8.021436">
        <ele>318.016551</ele>
        <time>2021-11-07T11:54:01.682Z</time>
      </trkpt>
      <trkpt lat="47.549186" lon="8.021006">
        <ele>317.706010</ele>
        <time>2021-11-07T11:54:05.266Z</time>
      </trkpt>
      <trkpt lat="47.549208" lon="8.019997">
        <ele>316.977050</ele>
        <time>2021-11-07T11:54:13.500Z</time>
      </trkpt>
      <trkpt lat="47.549261" lon="8.017878">
        <ele>314.945861</ele>
        <time>2021-11-07T11:54:29.621Z</time>
      </trkpt>
      <trkpt lat="47.549256" lon="8.017769">
        <ele>314.834985</ele>
        <time>2021-11-07T11:54:30.486Z</time>
      </trkpt>
      <trkpt lat="47.549291" lon="8.017761">
        <ele>314.781736</ele>
        <time>2021-11-07T11:54:30.882Z</time>
      </trkpt>
      <trkpt lat="47.549324" lon="8.017738">
        <ele>314.726900</ele>
        <time>2021-11-07T11:54:31.272Z</time>
      </trkpt>
      <trkpt lat="47.549351" lon="8.017702">
        <ele>314.672284</ele>
        <time>2021-11-07T11:54:31.674Z</time>
      </trkpt>
      <trkpt lat="47.549370" lon="8.017656">
        <ele>314.617552</ele>
        <time>2021-11-07T11:54:32.133Z</time>
      </trkpt>
      <trkpt lat="47.549379" lon="8.017603">
        <ele>314.562087</ele>
        <time>2021-11-07T11:54:32.539Z</time>
      </trkpt>
      <trkpt lat="47.549377" lon="8.017547">
        <ele>314.505175</ele>
        <time>2021-11-07T11:54:33.097Z</time>
      </trkpt>
      <trkpt lat="47.549310" lon="8.017418">
        <ele>314.339982</ele>
        <time>2021-11-07T11:54:34.444Z</time>
      </trkpt>
      <trkpt lat="47.549274" lon="8.017401">
        <ele>314.283169</ele>
        <time>2021-11-07T11:54:34.925Z</time>
      </trkpt>
      <trkpt lat="47.549281" lon="8.017304">
        <ele>314.184166</ele>
        <time>2021-11-07T11:54:35.641Z</time>
      </trkpt>
      <trkpt lat="47.549431" lon="8.015998">
        <ele>313.053004</ele>
        <time>2021-11-07T11:54:46.385Z</time>
      </trkpt>
      <trkpt lat="47.549589" lon="8.015316">
        <ele>312.458761</ele>
        <time>2021-11-07T11:54:52.229Z</time>
      </trkpt>
      <trkpt lat="47.549795" lon="8.014667">
        <ele>311.867712</ele>
        <time>2021-11-07T11:54:58.045Z</time>
      </trkpt>
      <trkpt lat="47.549871" lon="8.014427">
        <ele>311.629037</ele>
        <time>2021-11-07T11:55:00.180Z</time>
      </trkpt>
      <trkpt lat="47.550001" lon="8.014034">
        <ele>311.211986</ele>
        <time>2021-11-07T11:55:03.568Z</time>
      </trkpt>
      <trkpt lat="47.550565" lon="8.012461">
        <ele>309.514696</ele>
        <time>2021-11-07T11:55:17.175Z</time>
      </trkpt>
      <trkpt lat="47.550764" lon="8.011985">
        <ele>309.232194</ele>
        <time>2021-11-07T11:55:21.675Z</time>
      </trkpt>
      <trkpt lat="47.551187" lon="8.011080">
        <ele>309.204049</ele>
        <time>2021-11-07T11:55:31.793Z</time>
      </trkpt>
      <trkpt lat="47.551275" lon="8.010934">
        <ele>309.199045</ele>
        <time>2021-11-07T11:55:33.603Z</time>
      </trkpt>
      <trkpt lat="47.551902" lon="8.009884">
        <ele>309.376875</ele>
        <time>2021-11-07T11:55:50.557Z</time>
      </trkpt>
      <trkpt lat="47.552604" lon="8.008677">
        <ele>310.454840</ele>
        <time>2021-11-07T11:56:13.037Z</time>
      </trkpt>
      <trkpt lat="47.552640" lon="8.008615">
        <ele>310.510173</ele>
        <time>2021-11-07T11:56:14.623Z</time>
      </trkpt>
      <trkpt lat="47.552935" lon="8.007851">
        <ele>310.885585</ele>
        <time>2021-11-07T11:56:24.222Z</time>
      </trkpt>
      <trkpt lat="47.553173" lon="8.006642">
        <ele>310.313775</ele>
        <time>2021-11-07T11:56:35.024Z</time>
      </trkpt>
      <trkpt lat="47.553211" lon="8.006270">
        <ele>310.142948</ele>
        <time>2021-11-07T11:56:38.238Z</time>
      </trkpt>
      <trkpt lat="47.553220" lon="8.006182">
        <ele>310.102537</ele>
        <time>2021-11-07T11:56:38.829Z</time>
      </trkpt>
      <trkpt lat="47.553251" lon="8.005657">
        <ele>309.863255</ele>
        <time>2021-11-07T11:56:43.077Z</time>
      </trkpt>
      <trkpt lat="47.553256" lon="8.004837">
        <ele>309.733185</ele>
        <time>2021-11-07T11:56:50.001Z</time>
      </trkpt>
      <trkpt lat="47.553266" lon="8.003502">
        <ele>309.664903</ele>
        <time>2021-11-07T11:57:02.588Z</time>
      </trkpt>
      <trkpt lat="47.553270" lon="8.002465">
        <ele>309.797855</ele>
        <time>2021-11-07T11:57:15.260Z</time>
      </trkpt>
      <trkpt lat="47.553271" lon="8.002109">
        <ele>309.994375</ele>
        <time>2021-11-07T11:57:20.238Z</time>
      </trkpt>
      <trkpt lat="47.553273" lon="8.001687">
        <ele>310.227331</ele>
        <time>2021-11-07T11:57:25.918Z</time>
      </trkpt>
      <trkpt lat="47.553275" lon="7.999860">
        <ele>310.986943</ele>
        <time>2021-11-07T11:57:48.105Z</time>
      </trkpt>
      <trkpt lat="47.553278" lon="7.999508">
        <ele>310.828412</ele>
        <time>2021-11-07T11:57:51.651Z</time>
      </trkpt>
      <trkpt lat="47.553287" lon="7.998380">
        <ele>310.320399</ele>
        <time>2021-11-07T11:58:01.418Z</time>
      </trkpt>
      <trkpt lat="47.553287" lon="7.997190">
        <ele>309.632146</ele>
        <time>2021-11-07T11:58:10.717Z</time>
      </trkpt>
      <trkpt lat="47.553279" lon="7.996528">
        <ele>308.935911</ele>
        <time>2021-11-07T11:58:15.733Z</time>
      </trkpt>
      <trkpt lat="47.553268" lon="7.996252">
        <ele>308.645178</ele>
        <time>2021-11-07T11:58:17.805Z</time>
      </trkpt>
      <trkpt lat="47.553246" lon="7.995617">
        <ele>307.976566</ele>
        <time>2021-11-07T11:58:22.656Z</time>
      </trkpt>
      <trkpt lat="47.553164" lon="7.993925">
        <ele>306.619890</ele>
        <time>2021-11-07T11:58:35.985Z</time>
      </trkpt>
      <trkpt lat="47.553156" lon="7.993696">
        <ele>306.492761</ele>
        <time>2021-11-07T11:58:37.985Z</time>
      </trkpt>
      <trkpt lat="47.553137" lon="7.993190">
        <ele>306.211798</ele>
        <time>2021-11-07T11:58:42.441Z</time>
      </trkpt>
      <trkpt lat="47.553130" lon="7.993014">
        <ele>306.114053</ele>
        <time>2021-11-07T11:58:44.043Z</time>
      </trkpt>
      <trkpt lat="47.553107" lon="7.992226">
        <ele>305.676773</ele>
        <time>2021-11-07T11:58:51.272Z</time>
      </trkpt>
      <trkpt lat="47.553091" lon="7.991915">
        <ele>305.382786</ele>
        <time>2021-11-07T11:58:54.422Z</time>
      </trkpt>
      <trkpt lat="47.553050" lon="7.990744">
        <ele>304.047447</ele>
        <time>2021-11-07T11:59:04.114Z</time>
      </trkpt>
      <trkpt lat="47.553126" lon="7.990240">
        <ele>303.459336</ele>
        <time>2021-11-07T11:59:08.027Z</time>
      </trkpt>
      <trkpt lat="47.553146" lon="7.990113">
        <ele>303.310823</ele>
        <time>2021-11-07T11:59:08.955Z</time>
      </trkpt>
      <trkpt lat="47.553163" lon="7.990004">
        <ele>303.183421</ele>
        <time>2021-11-07T11:59:09.740Z</time>
      </trkpt>
      <trkpt lat="47.553214" lon="7.989758">
        <ele>302.890356</ele>
        <time>2021-11-07T11:59:11.519Z</time>
      </trkpt>
      <trkpt lat="47.553253" lon="7.989578">
        <ele>302.675067</ele>
        <time>2021-11-07T11:59:12.809Z</time>
      </trkpt>
      <trkpt lat="47.553352" lon="7.989142">
        <ele>301.621428</ele>
        <time>2021-11-07T11:59:15.904Z</time>
      </trkpt>
      <trkpt lat="47.553424" lon="7.988762">
        <ele>300.621455</ele>
        <time>2021-11-07T11:59:18.549Z</time>
      </trkpt>
      <trkpt lat="47.553410" lon="7.988607">
        <ele>300.225253</ele>
        <time>2021-11-07T11:59:19.581Z</time>
      </trkpt>
      <trkpt lat="47.553343" lon="7.988401">
        <ele>299.645897</ele>
        <time>2021-11-07T11:59:21.103Z</time>
      </trkpt>
      <trkpt lat="47.553232" lon="7.988247">
        <ele>299.075054</ele>
        <time>2021-11-07T11:59:22.574Z</time>
      </trkpt>
      <trkpt lat="47.552867" lon="7.987810">
        <ele>297.313445</ele>
        <time>2021-11-07T11:59:27.143Z</time>
      </trkpt>
      <trkpt lat="47.552713" lon="7.987638">
        <ele>296.589488</ele>
        <time>2021-11-07T11:59:28.980Z</time>
      </trkpt>
      <trkpt lat="47.552504" lon="7.987369">
        <ele>295.722529</ele>
        <time>2021-11-07T11:59:31.692Z</time>
      </trkpt>
      <trkpt lat="47.552436" lon="7.987273">
        <ele>295.585757</ele>
        <time>2021-11-07T11:59:32.634Z</time>
      </trkpt>
      <trkpt lat="47.552224" lon="7.986975">
        <ele>295.160228</ele>
        <time>2021-11-07T11:59:35.620Z</time>
      </trkpt>
      <trkpt lat="47.552152" lon="7.986883">
        <ele>295.021781</ele>
        <time>2021-11-07T11:59:36.600Z</time>
      </trkpt>
      <trkpt lat="47.551971" lon="7.986555">
        <ele>294.605389</ele>
        <time>2021-11-07T11:59:39.599Z</time>
      </trkpt>
      <trkpt lat="47.551917" lon="7.986288">
        <ele>294.331453</ele>
        <time>2021-11-07T11:59:41.679Z</time>
      </trkpt>
      <trkpt lat="47.551915" lon="7.986209">
        <ele>294.253757</ele>
        <time>2021-11-07T11:59:42.240Z</time>
      </trkpt>
      <trkpt lat="47.551898" lon="7.985654">
        <ele>293.707740</ele>
        <time>2021-11-07T11:59:47.748Z</time>
      </trkpt>
      <trkpt lat="47.551939" lon="7.985151">
        <ele>293.217087</ele>
        <time>2021-11-07T11:59:53.903Z</time>
      </trkpt>
      <trkpt lat="47.551934" lon="7.984260">
        <ele>294.631151</ele>
        <time>2021-11-07T12:00:07.489Z</time>
      </trkpt>
      <trkpt lat="47.551993" lon="7.984014">
        <ele>295.045469</ele>
        <time>2021-11-07T12:00:11.094Z</time>
      </trkpt>
      <trkpt lat="47.552007" lon="7.983931">
        <ele>295.181241</ele>
        <time>2021-11-07T12:00:12.668Z</time>
      </trkpt>
      <trkpt lat="47.552005" lon="7.983849">
        <ele>295.311460</ele>
        <time>2021-11-07T12:00:14.750Z</time>
      </trkpt>
      <trkpt lat="47.551911" lon="7.983632">
        <ele>295.720667</ele>
        <time>2021-11-07T12:00:18.943Z</time>
      </trkpt>
      <trkpt lat="47.551892" lon="7.983447">
        <ele>296.017642</ele>
        <time>2021-11-07T12:00:22.287Z</time>
      </trkpt>
      <trkpt lat="47.551861" lon="7.981113">
        <ele>299.259474</ele>
        <time>2021-11-07T12:01:05.577Z</time>
      </trkpt>
      <trkpt lat="47.551865" lon="7.980584">
        <ele>299.928618</ele>
        <time>2021-11-07T12:01:12.217Z</time>
      </trkpt>
      <trkpt lat="47.551873" lon="7.980135">
        <ele>300.496730</ele>
        <time>2021-11-07T12:01:16.973Z</time>
      </trkpt>
      <trkpt lat="47.551933" lon="7.979363">
        <ele>300.640208</ele>
        <time>2021-11-07T12:01:25.332Z</time>
      </trkpt>
      <trkpt lat="47.551923" lon="7.979308">
        <ele>300.621583</ele>
        <time>2021-11-07T12:01:25.700Z</time>
      </trkpt>
      <trkpt lat="47.551901" lon="7.979190">
        <ele>300.581553</ele>
        <time>2021-11-07T12:01:26.671Z</time>
      </trkpt>
      <trkpt lat="47.551829" lon="7.976305">
        <ele>299.947302</ele>
        <time>2021-11-07T12:01:51.720Z</time>
      </trkpt>
      <trkpt lat="47.551793" lon="7.974325">
        <ele>299.935899</ele>
        <time>2021-11-07T12:02:13.833Z</time>
      </trkpt>
      <trkpt lat="47.551755" lon="7.972603">
        <ele>299.775553</ele>
        <time>2021-11-07T12:02:31.131Z</time>
      </trkpt>
      <trkpt lat="47.551725" lon="7.970823">
        <ele>299.345792</ele>
        <time>2021-11-07T12:02:46.360Z</time>
      </trkpt>
      <trkpt lat="47.551734" lon="7.970034">
        <ele>299.079954</ele>
        <time>2021-11-07T12:02:53.320Z</time>
      </trkpt>
      <trkpt lat="47.551750" lon="7.968659">
        <ele>298.874085</ele>
        <time>2021-11-07T12:03:06.510Z</time>
      </trkpt>
      <trkpt lat="47.551825" lon="7.968445">
        <ele>298.899435</ele>
        <time>2021-11-07T12:03:08.762Z</time>
      </trkpt>
      <trkpt lat="47.551847" lon="7.968315">
        <ele>298.913525</ele>
        <time>2021-11-07T12:03:10.232Z</time>
      </trkpt>
      <trkpt lat="47.551839" lon="7.968208">
        <ele>298.924843</ele>
        <time>2021-11-07T12:03:11.435Z</time>
      </trkpt>
      <trkpt lat="47.551767" lon="7.967910">
        <ele>298.958119</ele>
        <time>2021-11-07T12:03:14.668Z</time>
      </trkpt>
      <trkpt lat="47.551902" lon="7.964650">
        <ele>299.500516</ele>
        <time>2021-11-07T12:03:51.069Z</time>
      </trkpt>
      <trkpt lat="47.551918" lon="7.963725">
        <ele>299.582833</ele>
        <time>2021-11-07T12:04:00.467Z</time>
      </trkpt>
      <trkpt lat="47.551906" lon="7.962453">
        <ele>299.280202</ele>
        <time>2021-11-07T12:04:12.396Z</time>
      </trkpt>
      <trkpt lat="47.551859" lon="7.961133">
        <ele>298.964201</ele>
        <time>2021-11-07T12:04:23.981Z</time>
      </trkpt>
      <trkpt lat="47.551894" lon="7.960729">
        <ele>298.863654</ele>
        <time>2021-11-07T12:04:27.732Z</time>
      </trkpt>
      <trkpt lat="47.551882" lon="7.960631">
        <ele>298.839068</ele>
        <time>2021-11-07T12:04:28.501Z</time>
      </trkpt>
      <trkpt lat="47.551865" lon="7.960528">
        <ele>298.812892</ele>
        <time>2021-11-07T12:04:29.447Z</time>
      </trkpt>
      <trkpt lat="47.551677" lon="7.960100">
        <ele>298.686834</ele>
        <time>2021-11-07T12:04:33.971Z</time>
      </trkpt>
      <trkpt lat="47.551300" lon="7.958844">
        <ele>298.348923</ele>
        <time>2021-11-07T12:04:46.882Z</time>
      </trkpt>
      <trkpt lat="47.550869" lon="7.957700">
        <ele>298.365551</ele>
        <time>2021-11-07T12:05:00.246Z</time>
      </trkpt>
      <trkpt lat="47.550745" lon="7.957569">
        <ele>298.368414</ele>
        <time>2021-11-07T12:05:02.485Z</time>
      </trkpt>
      <trkpt lat="47.550735" lon="7.957541">
        <ele>298.368816</ele>
        <time>2021-11-07T12:05:02.927Z</time>
      </trkpt>
      <trkpt lat="47.550613" lon="7.957254">
        <ele>298.373121</ele>
        <time>2021-11-07T12:05:06.265Z</time>
      </trkpt>
      <trkpt lat="47.550549" lon="7.957126">
        <ele>298.375143</ele>
        <time>2021-11-07T12:05:07.813Z</time>
      </trkpt>
      <trkpt lat="47.550445" lon="7.956918">
        <ele>298.378428</ele>
        <time>2021-11-07T12:05:10.486Z</time>
      </trkpt>
      <trkpt lat="47.550380" lon="7.956806">
        <ele>298.380303</ele>
        <time>2021-11-07T12:05:11.970Z</time>
      </trkpt>
      <trkpt lat="47.550205" lon="7.956552">
        <ele>298.398682</ele>
        <time>2021-11-07T12:05:15.680Z</time>
      </trkpt>
      <trkpt lat="47.549444" lon="7.955496">
        <ele>298.539139</ele>
        <time>2021-11-07T12:05:32.047Z</time>
      </trkpt>
      <trkpt lat="47.549157" lon="7.955099">
        <ele>298.592033</ele>
        <time>2021-11-07T12:05:37.848Z</time>
      </trkpt>
      <trkpt lat="47.549042" lon="7.954942">
        <ele>298.613099</ele>
        <time>2021-11-07T12:05:40.199Z</time>
      </trkpt>
      <trkpt lat="47.548833" lon="7.954652">
        <ele>298.675412</ele>
        <time>2021-11-07T12:05:44.556Z</time>
      </trkpt>
      <trkpt lat="47.548542" lon="7.954269">
        <ele>298.774466</ele>
        <time>2021-11-07T12:05:50.573Z</time>
      </trkpt>
      <trkpt lat="47.548342" lon="7.954009">
        <ele>298.842178</ele>
        <time>2021-11-07T12:05:54.755Z</time>
      </trkpt>
      <trkpt lat="47.548251" lon="7.953895">
        <ele>298.872505</ele>
        <time>2021-11-07T12:05:56.684Z</time>
      </trkpt>
      <trkpt lat="47.548115" lon="7.953729">
        <ele>298.917347</ele>
        <time>2021-11-07T12:05:59.552Z</time>
      </trkpt>
      <trkpt lat="47.547994" lon="7.953584">
        <ele>298.956951</ele>
        <time>2021-11-07T12:06:02.114Z</time>
      </trkpt>
      <trkpt lat="47.547871" lon="7.953437">
        <ele>298.997167</ele>
        <time>2021-11-07T12:06:04.705Z</time>
      </trkpt>
      <trkpt lat="47.547797" lon="7.953355">
        <ele>299.020684</ele>
        <time>2021-11-07T12:06:06.209Z</time>
      </trkpt>
      <trkpt lat="47.547624" lon="7.953160">
        <ele>299.076002</ele>
        <time>2021-11-07T12:06:09.702Z</time>
      </trkpt>
      <trkpt lat="47.547550" lon="7.953078">
        <ele>299.108233</ele>
        <time>2021-11-07T12:06:11.203Z</time>
      </trkpt>
      <trkpt lat="47.547458" lon="7.952975">
        <ele>299.152778</ele>
        <time>2021-11-07T12:06:13.031Z</time>
      </trkpt>
      <trkpt lat="47.547400" lon="7.952910">
        <ele>299.180871</ele>
        <time>2021-11-07T12:06:14.196Z</time>
      </trkpt>
      <trkpt lat="47.547090" lon="7.952543">
        <ele>299.334159</ele>
        <time>2021-11-07T12:06:20.585Z</time>
      </trkpt>
      <trkpt lat="47.546935" lon="7.952372">
        <ele>299.408811</ele>
        <time>2021-11-07T12:06:23.743Z</time>
      </trkpt>
      <trkpt lat="47.546776" lon="7.952185">
        <ele>299.487233</ele>
        <time>2021-11-07T12:06:27.185Z</time>
      </trkpt>
      <trkpt lat="47.546695" lon="7.952091">
        <ele>299.526979</ele>
        <time>2021-11-07T12:06:28.961Z</time>
      </trkpt>
      <trkpt lat="47.546634" lon="7.952024">
        <ele>299.556312</ele>
        <time>2021-11-07T12:06:30.284Z</time>
      </trkpt>
      <trkpt lat="47.546421" lon="7.951793">
        <ele>299.658282</ele>
        <time>2021-11-07T12:06:34.847Z</time>
      </trkpt>
      <trkpt lat="47.546231" lon="7.951558">
        <ele>299.753894</ele>
        <time>2021-11-07T12:06:39.005Z</time>
      </trkpt>
      <trkpt lat="47.546212" lon="7.951535">
        <ele>299.763372</ele>
        <time>2021-11-07T12:06:39.415Z</time>
      </trkpt>
      <trkpt lat="47.546135" lon="7.951406">
        <ele>299.751044</ele>
        <time>2021-11-07T12:06:41.178Z</time>
      </trkpt>
      <trkpt lat="47.545886" lon="7.951110">
        <ele>299.645056</ele>
        <time>2021-11-07T12:06:46.044Z</time>
      </trkpt>
      <trkpt lat="47.545824" lon="7.951061">
        <ele>299.621727</ele>
        <time>2021-11-07T12:06:47.093Z</time>
      </trkpt>
      <trkpt lat="47.545759" lon="7.950982">
        <ele>299.593816</ele>
        <time>2021-11-07T12:06:48.364Z</time>
      </trkpt>
      <trkpt lat="47.545727" lon="7.950947">
        <ele>299.580611</ele>
        <time>2021-11-07T12:06:49.101Z</time>
      </trkpt>
      <trkpt lat="47.545625" lon="7.950829">
        <ele>299.537646</ele>
        <time>2021-11-07T12:06:50.795Z</time>
      </trkpt>
      <trkpt lat="47.545567" lon="7.950765">
        <ele>299.513637</ele>
        <time>2021-11-07T12:06:51.797Z</time>
      </trkpt>
      <trkpt lat="47.545494" lon="7.950684">
        <ele>299.483358</ele>
        <time>2021-11-07T12:06:53.039Z</time>
      </trkpt>
      <trkpt lat="47.545434" lon="7.950668">
        <ele>299.463118</ele>
        <time>2021-11-07T12:06:54.027Z</time>
      </trkpt>
      <trkpt lat="47.545166" lon="7.950366">
        <ele>299.351332</ele>
        <time>2021-11-07T12:06:58.388Z</time>
      </trkpt>
      <trkpt lat="47.544901" lon="7.950044">
        <ele>299.237548</ele>
        <time>2021-11-07T12:07:02.623Z</time>
      </trkpt>
      <trkpt lat="47.544521" lon="7.949558">
        <ele>299.267034</ele>
        <time>2021-11-07T12:07:08.812Z</time>
      </trkpt>
      <trkpt lat="47.544239" lon="7.949202">
        <ele>299.364403</ele>
        <time>2021-11-07T12:07:13.720Z</time>
      </trkpt>
      <trkpt lat="47.543864" lon="7.948694">
        <ele>299.497945</ele>
        <time>2021-11-07T12:07:21.684Z</time>
      </trkpt>
      <trkpt lat="47.543760" lon="7.948548">
        <ele>299.535599</ele>
        <time>2021-11-07T12:07:23.926Z</time>
      </trkpt>
      <trkpt lat="47.543579" lon="7.948287">
        <ele>299.601980</ele>
        <time>2021-11-07T12:07:29.643Z</time>
      </trkpt>
      <trkpt lat="47.543532" lon="7.948214">
        <ele>299.619876</ele>
        <time>2021-11-07T12:07:30.769Z</time>
      </trkpt>
      <trkpt lat="47.543435" lon="7.948000">
        <ele>299.774546</ele>
        <time>2021-11-07T12:07:33.831Z</time>
      </trkpt>
      <trkpt lat="47.543407" lon="7.947938">
        <ele>299.902657</ele>
        <time>2021-11-07T12:07:35.689Z</time>
      </trkpt>
      <trkpt lat="47.543280" lon="7.947656">
        <ele>300.484851</ele>
        <time>2021-11-07T12:07:40.175Z</time>
      </trkpt>
      <trkpt lat="47.543142" lon="7.947250">
        <ele>301.265520</ele>
        <time>2021-11-07T12:07:47.639Z</time>
      </trkpt>
      <trkpt lat="47.543086" lon="7.947052">
        <ele>301.634206</ele>
        <time>2021-11-07T12:07:51.069Z</time>
      </trkpt>
      <trkpt lat="47.543056" lon="7.946935">
        <ele>301.849150</ele>
        <time>2021-11-07T12:07:53.910Z</time>
      </trkpt>
      <trkpt lat="47.543045" lon="7.946881">
        <ele>301.946020</ele>
        <time>2021-11-07T12:07:55.067Z</time>
      </trkpt>
      <trkpt lat="47.542982" lon="7.946547">
        <ele>302.541606</ele>
        <time>2021-11-07T12:08:00.467Z</time>
      </trkpt>
      <trkpt lat="47.542974" lon="7.946495">
        <ele>302.633201</ele>
        <time>2021-11-07T12:08:02.107Z</time>
      </trkpt>
      <trkpt lat="47.542960" lon="7.946400">
        <ele>302.800197</ele>
        <time>2021-11-07T12:08:04.173Z</time>
      </trkpt>
      <trkpt lat="47.542916" lon="7.945730">
        <ele>303.956292</ele>
        <time>2021-11-07T12:08:16.838Z</time>
      </trkpt>
      <trkpt lat="47.542913" lon="7.945267">
        <ele>304.543326</ele>
        <time>2021-11-07T12:08:25.334Z</time>
      </trkpt>
      <trkpt lat="47.543007" lon="7.943867">
        <ele>305.996738</ele>
        <time>2021-11-07T12:08:46.501Z</time>
      </trkpt>
      <trkpt lat="47.543161" lon="7.942213">
        <ele>306.598944</ele>
        <time>2021-11-07T12:09:04.907Z</time>
      </trkpt>
      <trkpt lat="47.543435" lon="7.940670">
        <ele>305.746353</ele>
        <time>2021-11-07T12:09:17.855Z</time>
      </trkpt>
      <trkpt lat="47.543826" lon="7.939433">
        <ele>304.361085</ele>
        <time>2021-11-07T12:09:28.256Z</time>
      </trkpt>
      <trkpt lat="47.544472" lon="7.937932">
        <ele>302.262727</ele>
        <time>2021-11-07T12:09:41.580Z</time>
      </trkpt>
      <trkpt lat="47.544705" lon="7.937395">
        <ele>301.530649</ele>
        <time>2021-11-07T12:09:46.420Z</time>
      </trkpt>
      <trkpt lat="47.544903" lon="7.936917">
        <ele>300.887501</ele>
        <time>2021-11-07T12:09:50.680Z</time>
      </trkpt>
      <trkpt lat="47.545074" lon="7.936484">
        <ele>300.312202</ele>
        <time>2021-11-07T12:09:54.511Z</time>
      </trkpt>
      <trkpt lat="47.545457" lon="7.935110">
        <ele>299.062606</ele>
        <time>2021-11-07T12:10:05.879Z</time>
      </trkpt>
      <trkpt lat="47.545674" lon="7.933625">
        <ele>298.381720</ele>
        <time>2021-11-07T12:10:18.959Z</time>
      </trkpt>
      <trkpt lat="47.545702" lon="7.933290">
        <ele>298.230450</ele>
        <time>2021-11-07T12:10:22.540Z</time>
      </trkpt>
      <trkpt lat="47.545724" lon="7.932758">
        <ele>298.552943</ele>
        <time>2021-11-07T12:10:28.806Z</time>
      </trkpt>
      <trkpt lat="47.545721" lon="7.931992">
        <ele>299.350914</ele>
        <time>2021-11-07T12:10:38.846Z</time>
      </trkpt>
      <trkpt lat="47.545696" lon="7.931497">
        <ele>299.868007</ele>
        <time>2021-11-07T12:10:46.051Z</time>
      </trkpt>
      <trkpt lat="47.545661" lon="7.930955">
        <ele>300.435198</ele>
        <time>2021-11-07T12:10:54.746Z</time>
      </trkpt>
      <trkpt lat="47.545563" lon="7.929641">
        <ele>301.484597</ele>
        <time>2021-11-07T12:11:17.086Z</time>
      </trkpt>
      <trkpt lat="47.545475" lon="7.928419">
        <ele>302.285865</ele>
        <time>2021-11-07T12:11:33.389Z</time>
      </trkpt>
      <trkpt lat="47.545421" lon="7.927686">
        <ele>302.403427</ele>
        <time>2021-11-07T12:11:39.492Z</time>
      </trkpt>
      <trkpt lat="47.545406" lon="7.927306">
        <ele>301.682423</ele>
        <time>2021-11-07T12:11:42.396Z</time>
      </trkpt>
      <trkpt lat="47.545407" lon="7.927001">
        <ele>301.104703</ele>
        <time>2021-11-07T12:11:44.683Z</time>
      </trkpt>
      <trkpt lat="47.545409" lon="7.926773">
        <ele>300.672802</ele>
        <time>2021-11-07T12:11:46.312Z</time>
      </trkpt>
      <trkpt lat="47.545417" lon="7.925848">
        <ele>298.920576</ele>
        <time>2021-11-07T12:11:52.647Z</time>
      </trkpt>
      <trkpt lat="47.545446" lon="7.925350">
        <ele>297.973789</ele>
        <time>2021-11-07T12:11:55.939Z</time>
      </trkpt>
      <trkpt lat="47.545466" lon="7.924880">
        <ele>296.980854</ele>
        <time>2021-11-07T12:11:58.992Z</time>
      </trkpt>
      <trkpt lat="47.545481" lon="7.924396">
        <ele>295.893070</ele>
        <time>2021-11-07T12:12:02.076Z</time>
      </trkpt>
      <trkpt lat="47.545521" lon="7.923709">
        <ele>294.344945</ele>
        <time>2021-11-07T12:12:06.601Z</time>
      </trkpt>
      <trkpt lat="47.545536" lon="7.923407">
        <ele>293.665085</ele>
        <time>2021-11-07T12:12:08.749Z</time>
      </trkpt>
      <trkpt lat="47.545553" lon="7.923142">
        <ele>293.067448</ele>
        <time>2021-11-07T12:12:10.580Z</time>
      </trkpt>
      <trkpt lat="47.545587" lon="7.922895">
        <ele>292.501490</ele>
        <time>2021-11-07T12:12:12.513Z</time>
      </trkpt>
      <trkpt lat="47.545641" lon="7.922610">
        <ele>291.836902</ele>
        <time>2021-11-07T12:12:14.659Z</time>
      </trkpt>
      <trkpt lat="47.545690" lon="7.922369">
        <ele>291.541794</ele>
        <time>2021-11-07T12:12:16.666Z</time>
      </trkpt>
      <trkpt lat="47.545699" lon="7.922325">
        <ele>291.513452</ele>
        <time>2021-11-07T12:12:16.960Z</time>
      </trkpt>
      <trkpt lat="47.545714" lon="7.922249">
        <ele>291.464640</ele>
        <time>2021-11-07T12:12:17.550Z</time>
      </trkpt>
      <trkpt lat="47.545778" lon="7.921947">
        <ele>291.269512</ele>
        <time>2021-11-07T12:12:20.252Z</time>
      </trkpt>
      <trkpt lat="47.545810" lon="7.921755">
        <ele>291.147599</ele>
        <time>2021-11-07T12:12:21.733Z</time>
      </trkpt>
      <trkpt lat="47.545881" lon="7.921096">
        <ele>290.736215</ele>
        <time>2021-11-07T12:12:27.193Z</time>
      </trkpt>
      <trkpt lat="47.545913" lon="7.920765">
        <ele>290.530087</ele>
        <time>2021-11-07T12:12:30.061Z</time>
      </trkpt>
      <trkpt lat="47.545973" lon="7.920313">
        <ele>290.246115</ele>
        <time>2021-11-07T12:12:34.463Z</time>
      </trkpt>
      <trkpt lat="47.546128" lon="7.919617">
        <ele>289.922191</ele>
        <time>2021-11-07T12:12:41.645Z</time>
      </trkpt>
      <trkpt lat="47.546262" lon="7.919081">
        <ele>289.787471</ele>
        <time>2021-11-07T12:12:47.679Z</time>
      </trkpt>
      <trkpt lat="47.546426" lon="7.918430">
        <ele>289.623694</ele>
        <time>2021-11-07T12:12:54.525Z</time>
      </trkpt>
      <trkpt lat="47.546821" lon="7.916867">
        <ele>289.190843</ele>
        <time>2021-11-07T12:13:08.569Z</time>
      </trkpt>
      <trkpt lat="47.547032" lon="7.916218">
        <ele>288.974165</ele>
        <time>2021-11-07T12:13:14.914Z</time>
      </trkpt>
      <trkpt lat="47.547091" lon="7.916039">
        <ele>288.914247</ele>
        <time>2021-11-07T12:13:16.710Z</time>
      </trkpt>
      <trkpt lat="47.547113" lon="7.915971">
        <ele>288.891565</ele>
        <time>2021-11-07T12:13:17.304Z</time>
      </trkpt>
      <trkpt lat="47.547423" lon="7.915080">
        <ele>288.590054</ele>
        <time>2021-11-07T12:13:26.871Z</time>
      </trkpt>
      <trkpt lat="47.547994" lon="7.913433">
        <ele>289.100926</ele>
        <time>2021-11-07T12:13:46.583Z</time>
      </trkpt>
      <trkpt lat="47.548027" lon="7.913334">
        <ele>289.133552</ele>
        <time>2021-11-07T12:13:47.942Z</time>
      </trkpt>
      <trkpt lat="47.548412" lon="7.912168">
        <ele>289.763180</ele>
        <time>2021-11-07T12:14:04.345Z</time>
      </trkpt>
      <trkpt lat="47.549012" lon="7.910340">
        <ele>291.299660</ele>
        <time>2021-11-07T12:14:31.265Z</time>
      </trkpt>
      <trkpt lat="47.549102" lon="7.910058">
        <ele>291.593857</ele>
        <time>2021-11-07T12:14:35.384Z</time>
      </trkpt>
      <trkpt lat="47.549195" lon="7.909756">
        <ele>291.935249</ele>
        <time>2021-11-07T12:14:39.706Z</time>
      </trkpt>
      <trkpt lat="47.549349" lon="7.909245">
        <ele>292.510795</ele>
        <time>2021-11-07T12:14:46.963Z</time>
      </trkpt>
      <trkpt lat="47.549520" lon="7.908678">
        <ele>293.149489</ele>
        <time>2021-11-07T12:14:54.986Z</time>
      </trkpt>
      <trkpt lat="47.549539" lon="7.908625">
        <ele>293.211208</ele>
        <time>2021-11-07T12:14:55.719Z</time>
      </trkpt>
      <trkpt lat="47.550497" lon="7.905558">
        <ele>298.384112</ele>
        <time>2021-11-07T12:15:50.707Z</time>
      </trkpt>
      <trkpt lat="47.550497" lon="7.905558">
        <ele>298.384112</ele>
        <time>2021-11-07T12:15:50.849Z</time>
      </trkpt>
      <trkpt lat="47.550497" lon="7.905558">
        <ele>298.384112</ele>
        <time>2021-11-07T12:15:50.860Z</time>
      </trkpt>
      <trkpt lat="47.550283" lon="7.905413">
        <ele>299.137978</ele>
        <time>2021-11-07T12:15:59.002Z</time>
      </trkpt>
      <trkpt lat="47.550067" lon="7.905245">
        <ele>300.064517</ele>
        <time>2021-11-07T12:16:07.713Z</time>
      </trkpt>
      <trkpt lat="47.549867" lon="7.905155">
        <ele>300.858383</ele>
        <time>2021-11-07T12:16:15.325Z</time>
      </trkpt>
      <trkpt lat="47.549868" lon="7.905010">
        <ele>301.230105</ele>
        <time>2021-11-07T12:16:18.759Z</time>
      </trkpt>
      <trkpt lat="47.550025" lon="7.904774">
        <ele>302.079549</ele>
        <time>2021-11-07T12:16:26.861Z</time>
      </trkpt>
      <trkpt lat="47.550088" lon="7.904635">
        <ele>302.508753</ele>
        <time>2021-11-07T12:16:31.013Z</time>
      </trkpt>
      <trkpt lat="47.550302" lon="7.904164">
        <ele>303.964217</ele>
        <time>2021-11-07T12:16:45.209Z</time>
      </trkpt>
      <trkpt lat="47.550498" lon="7.903445">
        <ele>305.937976</ele>
        <time>2021-11-07T12:17:04.745Z</time>
      </trkpt>
      <trkpt lat="47.550688" lon="7.902451">
        <ele>308.505240</ele>
        <time>2021-11-07T12:17:27.298Z</time>
      </trkpt>
      <trkpt lat="47.550757" lon="7.901591">
        <ele>310.657403</ele>
        <time>2021-11-07T12:17:47.046Z</time>
      </trkpt>
      <trkpt lat="47.550769" lon="7.901362">
        <ele>311.228184</ele>
        <time>2021-11-07T12:17:52.954Z</time>
      </trkpt>
      <trkpt lat="47.550801" lon="7.900244">
        <ele>314.286509</ele>
        <time>2021-11-07T12:18:17.352Z</time>
      </trkpt>
      <trkpt lat="47.550819" lon="7.898109">
        <ele>320.080426</ele>
        <time>2021-11-07T12:19:04.392Z</time>
      </trkpt>
      <trkpt lat="47.550648" lon="7.896481">
        <ele>322.712292</ele>
        <time>2021-11-07T12:19:32.047Z</time>
      </trkpt>
      <trkpt lat="47.550639" lon="7.896345">
        <ele>322.930580</ele>
        <time>2021-11-07T12:19:34.422Z</time>
      </trkpt>
      <trkpt lat="47.550660" lon="7.896255">
        <ele>323.082695</ele>
        <time>2021-11-07T12:19:35.223Z</time>
      </trkpt>
      <trkpt lat="47.550838" lon="7.895509">
        <ele>324.191670</ele>
        <time>2021-11-07T12:19:45.391Z</time>
      </trkpt>
      <trkpt lat="47.550878" lon="7.895158">
        <ele>324.528163</ele>
        <time>2021-11-07T12:19:49.453Z</time>
      </trkpt>
      <trkpt lat="47.550908" lon="7.894308">
        <ele>325.332756</ele>
        <time>2021-11-07T12:19:59.925Z</time>
      </trkpt>
      <trkpt lat="47.550892" lon="7.893176">
        <ele>326.403058</ele>
        <time>2021-11-07T12:20:14.643Z</time>
      </trkpt>
      <trkpt lat="47.550904" lon="7.891725">
        <ele>330.744970</ele>
        <time>2021-11-07T12:20:44.405Z</time>
      </trkpt>
      <trkpt lat="47.550915" lon="7.890600">
        <ele>334.259981</ele>
        <time>2021-11-07T12:21:13.245Z</time>
      </trkpt>
      <trkpt lat="47.550833" lon="7.889069">
        <ele>340.560454</ele>
        <time>2021-11-07T12:21:55.879Z</time>
      </trkpt>
      <trkpt lat="47.550831" lon="7.888611">
        <ele>342.497592</ele>
        <time>2021-11-07T12:22:08.449Z</time>
      </trkpt>
      <trkpt lat="47.550789" lon="7.887816">
        <ele>345.870307</ele>
        <time>2021-11-07T12:22:29.061Z</time>
      </trkpt>
      <trkpt lat="47.550758" lon="7.887295">
        <ele>347.846260</ele>
        <time>2021-11-07T12:22:42.882Z</time>
      </trkpt>
      <trkpt lat="47.550677" lon="7.886476">
        <ele>350.933736</ele>
        <time>2021-11-07T12:23:04.371Z</time>
      </trkpt>
      <trkpt lat="47.550548" lon="7.885799">
        <ele>353.557640</ele>
        <time>2021-11-07T12:23:21.574Z</time>
      </trkpt>
      <trkpt lat="47.550391" lon="7.885109">
        <ele>356.208610</ele>
        <time>2021-11-07T12:23:39.211Z</time>
      </trkpt>
      <trkpt lat="47.550332" lon="7.884727">
        <ele>357.291191</ele>
        <time>2021-11-07T12:23:47.902Z</time>
      </trkpt>
      <trkpt lat="47.550234" lon="7.883221">
        <ele>361.470925</ele>
        <time>2021-11-07T12:24:20.733Z</time>
      </trkpt>
      <trkpt lat="47.549927" lon="7.881490">
        <ele>366.155740</ele>
        <time>2021-11-07T12:24:52.997Z</time>
      </trkpt>
      <trkpt lat="47.549726" lon="7.880786">
        <ele>368.086592</ele>
        <time>2021-11-07T12:25:08.974Z</time>
      </trkpt>
      <trkpt lat="47.549327" lon="7.879547">
        <ele>372.351925</ele>
        <time>2021-11-07T12:25:38.758Z</time>
      </trkpt>
      <trkpt lat="47.549318" lon="7.879398">
        <ele>372.939398</ele>
        <time>2021-11-07T12:25:41.946Z</time>
      </trkpt>
      <trkpt lat="47.549140" lon="7.879391">
        <ele>373.975417</ele>
        <time>2021-11-07T12:25:48.816Z</time>
      </trkpt>
      <trkpt lat="47.548718" lon="7.879258">
        <ele>376.485669</ele>
        <time>2021-11-07T12:26:04.206Z</time>
      </trkpt>
      <trkpt lat="47.548422" lon="7.878959">
        <ele>378.570084</ele>
        <time>2021-11-07T12:26:18.965Z</time>
      </trkpt>
      <trkpt lat="47.548234" lon="7.878638">
        <ele>380.239105</ele>
        <time>2021-11-07T12:26:32.675Z</time>
      </trkpt>
      <trkpt lat="47.547992" lon="7.877974">
        <ele>385.361923</ele>
        <time>2021-11-07T12:26:54.955Z</time>
      </trkpt>
      <trkpt lat="47.547900" lon="7.878058">
        <ele>386.508628</ele>
        <time>2021-11-07T12:27:00.437Z</time>
      </trkpt>
      <trkpt lat="47.547680" lon="7.878061">
        <ele>388.843143</ele>
        <time>2021-11-07T12:27:08.526Z</time>
      </trkpt>
      <trkpt lat="47.547482" lon="7.877961">
        <ele>391.062842</ele>
        <time>2021-11-07T12:27:21.542Z</time>
      </trkpt>
      <trkpt lat="47.547171" lon="7.877756">
        <ele>394.674749</ele>
        <time>2021-11-07T12:27:45.870Z</time>
      </trkpt>
      <trkpt lat="47.546473" lon="7.877317">
        <ele>402.188463</ele>
        <time>2021-11-07T12:28:40.754Z</time>
      </trkpt>
      <trkpt lat="47.546289" lon="7.877305">
        <ele>403.802045</ele>
        <time>2021-11-07T12:28:48.238Z</time>
      </trkpt>
      <trkpt lat="47.546237" lon="7.877331">
        <ele>404.282863</ele>
        <time>2021-11-07T12:28:54.130Z</time>
      </trkpt>
      <trkpt lat="47.546187" lon="7.877404">
        <ele>404.897881</ele>
        <time>2021-11-07T12:28:59.492Z</time>
      </trkpt>
      <trkpt lat="47.546139" lon="7.877495">
        <ele>405.580844</ele>
        <time>2021-11-07T12:29:02.127Z</time>
      </trkpt>
      <trkpt lat="47.546009" lon="7.877701">
        <ele>407.248534</ele>
        <time>2021-11-07T12:29:10.936Z</time>
      </trkpt>
      <trkpt lat="47.545917" lon="7.877738">
        <ele>408.083716</ele>
        <time>2021-11-07T12:29:18.685Z</time>
      </trkpt>
      <trkpt lat="47.545676" lon="7.877750">
        <ele>410.196306</ele>
        <time>2021-11-07T12:29:24.825Z</time>
      </trkpt>
      <trkpt lat="47.545631" lon="7.877715">
        <ele>410.641580</ele>
        <time>2021-11-07T12:29:30.215Z</time>
      </trkpt>
      <trkpt lat="47.545281" lon="7.876743">
        <ele>414.683711</ele>
        <time>2021-11-07T12:29:57.429Z</time>
      </trkpt>
      <trkpt lat="47.545014" lon="7.876180">
        <ele>412.943385</ele>
        <time>2021-11-07T12:30:03.130Z</time>
      </trkpt>
      <trkpt lat="47.544667" lon="7.875566">
        <ele>410.917932</ele>
        <time>2021-11-07T12:30:07.961Z</time>
      </trkpt>
      <trkpt lat="47.544459" lon="7.875225">
        <ele>409.755447</ele>
        <time>2021-11-07T12:30:10.673Z</time>
      </trkpt>
      <trkpt lat="47.544302" lon="7.874979">
        <ele>408.899148</ele>
        <time>2021-11-07T12:30:12.699Z</time>
      </trkpt>
      <trkpt lat="47.544232" lon="7.874871">
        <ele>408.684806</ele>
        <time>2021-11-07T12:30:13.597Z</time>
      </trkpt>
      <trkpt lat="47.544070" lon="7.874957">
        <ele>408.684806</ele>
        <time>2021-11-07T12:30:15.799Z</time>
      </trkpt>
      <trkpt lat="47.543630" lon="7.874569">
        <ele>408.684806</ele>
        <time>2021-11-07T12:30:22.597Z</time>
      </trkpt>
      <trkpt lat="47.543406" lon="7.874540">
        <ele>408.684806</ele>
        <time>2021-11-07T12:30:25.593Z</time>
      </trkpt>
    </trkseg>
  </trk>
</gpx>